<?xml version="1.0" encoding="UTF-8" standalone="no" ?>
<gpx xmlns="http://www.topografix.com/GPX/1/1" xmlns:xsi="http://www.w3.org/2001/XMLSchema-instance" xsi:schemaLocation="http://www.topografix.com/GPX/1/1 http://www.topografix.com/GPX/1/1/gpx.xsd" version="1.1" creator="VisuGPX - https://www.visugpx.com">
  <metadata>
    <name>121208TelethonDolmenJuge</name>
    <desc><![CDATA[Sortie VTT organisée par le club de la Roue d\'Or de Brignoles, en faveur du Téléthon.]]></desc>
  </metadata>
  <trk>
    <name><![CDATA[121208TelethonDolmenJuge]]></name>
    <cmt><![CDATA[HR decrease: 141/111/30]]></cmt>
    <trkseg>
      <trkpt lat="43.40516" lon="6.06522">
        <ele>220.80000305176</ele>
        <time>2012-12-08T13:14:39Z</time>
      </trkpt>
      <trkpt lat="43.40536" lon="6.06518">
        <ele>220.60000610352</ele>
        <time>2012-12-08T13:14:51Z</time>
      </trkpt>
      <trkpt lat="43.40558" lon="6.06526">
        <ele>220.60000610352</ele>
        <time>2012-12-08T13:14:56Z</time>
      </trkpt>
      <trkpt lat="43.40603" lon="6.06535">
        <ele>218.80000305176</ele>
        <time>2012-12-08T13:15:05Z</time>
      </trkpt>
      <trkpt lat="43.40615" lon="6.06537">
        <ele>216.19999694824</ele>
        <time>2012-12-08T13:15:10Z</time>
      </trkpt>
      <trkpt lat="43.40639" lon="6.06491">
        <ele>215.80000305176</ele>
        <time>2012-12-08T13:15:24Z</time>
      </trkpt>
      <trkpt lat="43.40686" lon="6.06445">
        <ele>212.80000305176</ele>
        <time>2012-12-08T13:15:34Z</time>
      </trkpt>
      <trkpt lat="43.40707" lon="6.06436">
        <ele>211.39999389648</ele>
        <time>2012-12-08T13:15:37Z</time>
      </trkpt>
      <trkpt lat="43.40762" lon="6.06429">
        <ele>208.60000610352</ele>
        <time>2012-12-08T13:15:46Z</time>
      </trkpt>
      <trkpt lat="43.40779" lon="6.0642">
        <ele>207.39999389648</ele>
        <time>2012-12-08T13:15:49Z</time>
      </trkpt>
      <trkpt lat="43.40784" lon="6.06418">
        <ele>207</ele>
        <time>2012-12-08T13:15:50Z</time>
      </trkpt>
      <trkpt lat="43.40802" lon="6.06415">
        <ele>207</ele>
        <time>2012-12-08T13:15:53Z</time>
      </trkpt>
      <trkpt lat="43.40818" lon="6.06423">
        <ele>207</ele>
        <time>2012-12-08T13:15:56Z</time>
      </trkpt>
      <trkpt lat="43.4083" lon="6.06425">
        <ele>207</ele>
        <time>2012-12-08T13:15:59Z</time>
      </trkpt>
      <trkpt lat="43.40861" lon="6.06406">
        <ele>207</ele>
        <time>2012-12-08T13:16:08Z</time>
      </trkpt>
      <trkpt lat="43.4088" lon="6.06384">
        <ele>207</ele>
        <time>2012-12-08T13:16:14Z</time>
      </trkpt>
      <trkpt lat="43.40941" lon="6.06311">
        <ele>209</ele>
        <time>2012-12-08T13:16:36Z</time>
      </trkpt>
      <trkpt lat="43.40946" lon="6.06312">
        <ele>209</ele>
        <time>2012-12-08T13:16:39Z</time>
      </trkpt>
      <trkpt lat="43.40957" lon="6.06304">
        <ele>209</ele>
        <time>2012-12-08T13:16:46Z</time>
      </trkpt>
      <trkpt lat="43.40958" lon="6.06304">
        <ele>209</ele>
        <time>2012-12-08T13:16:49Z</time>
      </trkpt>
      <trkpt lat="43.40965" lon="6.0631">
        <ele>209</ele>
        <time>2012-12-08T13:16:55Z</time>
      </trkpt>
      <trkpt lat="43.40971" lon="6.06307">
        <ele>209</ele>
        <time>2012-12-08T13:16:57Z</time>
      </trkpt>
      <trkpt lat="43.40979" lon="6.06289">
        <ele>209</ele>
        <time>2012-12-08T13:17:03Z</time>
      </trkpt>
      <trkpt lat="43.40988" lon="6.06284">
        <ele>209</ele>
        <time>2012-12-08T13:17:06Z</time>
      </trkpt>
      <trkpt lat="43.41063" lon="6.06258">
        <ele>209</ele>
        <time>2012-12-08T13:17:29Z</time>
      </trkpt>
      <trkpt lat="43.41115" lon="6.06245">
        <ele>209</ele>
        <time>2012-12-08T13:17:43Z</time>
      </trkpt>
      <trkpt lat="43.41163" lon="6.06223">
        <ele>209</ele>
        <time>2012-12-08T13:17:56Z</time>
      </trkpt>
      <trkpt lat="43.41203" lon="6.06208">
        <ele>209</ele>
        <time>2012-12-08T13:18:09Z</time>
      </trkpt>
      <trkpt lat="43.41208" lon="6.06195">
        <ele>209.39999389648</ele>
        <time>2012-12-08T13:18:12Z</time>
      </trkpt>
      <trkpt lat="43.41203" lon="6.06128">
        <ele>211</ele>
        <time>2012-12-08T13:18:25Z</time>
      </trkpt>
      <trkpt lat="43.41214" lon="6.06115">
        <ele>211</ele>
        <time>2012-12-08T13:18:29Z</time>
      </trkpt>
      <trkpt lat="43.41265" lon="6.06085">
        <ele>211.39999389648</ele>
        <time>2012-12-08T13:18:45Z</time>
      </trkpt>
      <trkpt lat="43.4129" lon="6.06069">
        <ele>213</ele>
        <time>2012-12-08T13:18:53Z</time>
      </trkpt>
      <trkpt lat="43.4131" lon="6.06066">
        <ele>213</ele>
        <time>2012-12-08T13:18:59Z</time>
      </trkpt>
      <trkpt lat="43.41338" lon="6.06094">
        <ele>215.19999694824</ele>
        <time>2012-12-08T13:19:09Z</time>
      </trkpt>
      <trkpt lat="43.41405" lon="6.06165">
        <ele>217.60000610352</ele>
        <time>2012-12-08T13:19:37Z</time>
      </trkpt>
      <trkpt lat="43.41416" lon="6.0617">
        <ele>219.39999389648</ele>
        <time>2012-12-08T13:19:41Z</time>
      </trkpt>
      <trkpt lat="43.41443" lon="6.06178">
        <ele>221.39999389648</ele>
        <time>2012-12-08T13:19:51Z</time>
      </trkpt>
      <trkpt lat="43.41457" lon="6.06184">
        <ele>221.39999389648</ele>
        <time>2012-12-08T13:19:56Z</time>
      </trkpt>
      <trkpt lat="43.41498" lon="6.06193">
        <ele>221.39999389648</ele>
        <time>2012-12-08T13:20:09Z</time>
      </trkpt>
      <trkpt lat="43.41531" lon="6.06187">
        <ele>221.80000305176</ele>
        <time>2012-12-08T13:20:20Z</time>
      </trkpt>
      <trkpt lat="43.41536" lon="6.06187">
        <ele>223</ele>
        <time>2012-12-08T13:20:22Z</time>
      </trkpt>
      <trkpt lat="43.41553" lon="6.06177">
        <ele>223.39999389648</ele>
        <time>2012-12-08T13:20:30Z</time>
      </trkpt>
      <trkpt lat="43.41565" lon="6.06176">
        <ele>225.60000610352</ele>
        <time>2012-12-08T13:20:35Z</time>
      </trkpt>
      <trkpt lat="43.4158" lon="6.06182">
        <ele>225.60000610352</ele>
        <time>2012-12-08T13:20:42Z</time>
      </trkpt>
      <trkpt lat="43.41581" lon="6.06185">
        <ele>225.60000610352</ele>
        <time>2012-12-08T13:20:48Z</time>
      </trkpt>
      <trkpt lat="43.41584" lon="6.06194">
        <ele>225.60000610352</ele>
        <time>2012-12-08T13:20:55Z</time>
      </trkpt>
      <trkpt lat="43.41594" lon="6.06205">
        <ele>225.60000610352</ele>
        <time>2012-12-08T13:21:01Z</time>
      </trkpt>
      <trkpt lat="43.41598" lon="6.06204">
        <ele>225.60000610352</ele>
        <time>2012-12-08T13:21:13Z</time>
      </trkpt>
      <trkpt lat="43.41606" lon="6.06165">
        <ele>225.60000610352</ele>
        <time>2012-12-08T13:21:23Z</time>
      </trkpt>
      <trkpt lat="43.41625" lon="6.06141">
        <ele>225.60000610352</ele>
        <time>2012-12-08T13:21:30Z</time>
      </trkpt>
      <trkpt lat="43.41629" lon="6.06131">
        <ele>225.60000610352</ele>
        <time>2012-12-08T13:21:33Z</time>
      </trkpt>
      <trkpt lat="43.41618" lon="6.06094">
        <ele>225.60000610352</ele>
        <time>2012-12-08T13:21:40Z</time>
      </trkpt>
      <trkpt lat="43.41618" lon="6.06063">
        <ele>225.60000610352</ele>
        <time>2012-12-08T13:21:46Z</time>
      </trkpt>
      <trkpt lat="43.41619" lon="6.06054">
        <ele>225.60000610352</ele>
        <time>2012-12-08T13:21:48Z</time>
      </trkpt>
      <trkpt lat="43.41638" lon="6.05933">
        <ele>227.60000610352</ele>
        <time>2012-12-08T13:22:14Z</time>
      </trkpt>
      <trkpt lat="43.41644" lon="6.05867">
        <ele>229.80000305176</ele>
        <time>2012-12-08T13:22:31Z</time>
      </trkpt>
      <trkpt lat="43.41648" lon="6.05806">
        <ele>229.80000305176</ele>
        <time>2012-12-08T13:22:45Z</time>
      </trkpt>
      <trkpt lat="43.41648" lon="6.05773">
        <ele>229.80000305176</ele>
        <time>2012-12-08T13:22:52Z</time>
      </trkpt>
      <trkpt lat="43.41645" lon="6.05688">
        <ele>229.80000305176</ele>
        <time>2012-12-08T13:23:09Z</time>
      </trkpt>
      <trkpt lat="43.41629" lon="6.05565">
        <ele>229.80000305176</ele>
        <time>2012-12-08T13:23:31Z</time>
      </trkpt>
      <trkpt lat="43.41604" lon="6.05472">
        <ele>229.80000305176</ele>
        <time>2012-12-08T13:23:48Z</time>
      </trkpt>
      <trkpt lat="43.4159" lon="6.05425">
        <ele>229.80000305176</ele>
        <time>2012-12-08T13:23:57Z</time>
      </trkpt>
      <trkpt lat="43.41555" lon="6.05331">
        <ele>227.80000305176</ele>
        <time>2012-12-08T13:24:15Z</time>
      </trkpt>
      <trkpt lat="43.41537" lon="6.05266">
        <ele>226.60000610352</ele>
        <time>2012-12-08T13:24:26Z</time>
      </trkpt>
      <trkpt lat="43.41497" lon="6.05177">
        <ele>225.19999694824</ele>
        <time>2012-12-08T13:24:41Z</time>
      </trkpt>
      <trkpt lat="43.41497" lon="6.05171">
        <ele>224.80000305176</ele>
        <time>2012-12-08T13:24:42Z</time>
      </trkpt>
      <trkpt lat="43.41499" lon="6.05166">
        <ele>224.39999389648</ele>
        <time>2012-12-08T13:24:43Z</time>
      </trkpt>
      <trkpt lat="43.41512" lon="6.0516">
        <ele>223.39999389648</ele>
        <time>2012-12-08T13:24:47Z</time>
      </trkpt>
      <trkpt lat="43.41545" lon="6.05156">
        <ele>224.19999694824</ele>
        <time>2012-12-08T13:24:57Z</time>
      </trkpt>
      <trkpt lat="43.416" lon="6.05165">
        <ele>228.19999694824</ele>
        <time>2012-12-08T13:25:18Z</time>
      </trkpt>
      <trkpt lat="43.4166" lon="6.05168">
        <ele>232</ele>
        <time>2012-12-08T13:25:40Z</time>
      </trkpt>
      <trkpt lat="43.41678" lon="6.05155">
        <ele>233.60000610352</ele>
        <time>2012-12-08T13:25:48Z</time>
      </trkpt>
      <trkpt lat="43.41695" lon="6.05134">
        <ele>235.60000610352</ele>
        <time>2012-12-08T13:25:57Z</time>
      </trkpt>
      <trkpt lat="43.41721" lon="6.05115">
        <ele>235.60000610352</ele>
        <time>2012-12-08T13:26:08Z</time>
      </trkpt>
      <trkpt lat="43.41732" lon="6.05111">
        <ele>237.80000305176</ele>
        <time>2012-12-08T13:26:13Z</time>
      </trkpt>
      <trkpt lat="43.41736" lon="6.05114">
        <ele>237.80000305176</ele>
        <time>2012-12-08T13:26:15Z</time>
      </trkpt>
      <trkpt lat="43.41737" lon="6.0512">
        <ele>238.19999694824</ele>
        <time>2012-12-08T13:26:17Z</time>
      </trkpt>
      <trkpt lat="43.41737" lon="6.05134">
        <ele>240</ele>
        <time>2012-12-08T13:26:21Z</time>
      </trkpt>
      <trkpt lat="43.41738" lon="6.05169">
        <ele>240</ele>
        <time>2012-12-08T13:26:31Z</time>
      </trkpt>
      <trkpt lat="43.4175" lon="6.05181">
        <ele>240</ele>
        <time>2012-12-08T13:26:37Z</time>
      </trkpt>
      <trkpt lat="43.41782" lon="6.05184">
        <ele>242</ele>
        <time>2012-12-08T13:26:49Z</time>
      </trkpt>
      <trkpt lat="43.41847" lon="6.05186">
        <ele>245</ele>
        <time>2012-12-08T13:27:14Z</time>
      </trkpt>
      <trkpt lat="43.4188" lon="6.05178">
        <ele>246.60000610352</ele>
        <time>2012-12-08T13:27:27Z</time>
      </trkpt>
      <trkpt lat="43.41888" lon="6.05168">
        <ele>248.39999389648</ele>
        <time>2012-12-08T13:27:34Z</time>
      </trkpt>
      <trkpt lat="43.41896" lon="6.05165">
        <ele>248.39999389648</ele>
        <time>2012-12-08T13:27:40Z</time>
      </trkpt>
      <trkpt lat="43.41895" lon="6.05168">
        <ele>248.39999389648</ele>
        <time>2012-12-08T13:27:41Z</time>
      </trkpt>
      <trkpt lat="43.41904" lon="6.0517">
        <ele>248.80000305176</ele>
        <time>2012-12-08T13:27:44Z</time>
      </trkpt>
      <trkpt lat="43.41909" lon="6.05163">
        <ele>249.19999694824</ele>
        <time>2012-12-08T13:27:45Z</time>
      </trkpt>
      <trkpt lat="43.41914" lon="6.05168">
        <ele>250</ele>
        <time>2012-12-08T13:27:46Z</time>
      </trkpt>
      <trkpt lat="43.41929" lon="6.05161">
        <ele>250.60000610352</ele>
        <time>2012-12-08T13:27:55Z</time>
      </trkpt>
      <trkpt lat="43.41944" lon="6.05152">
        <ele>251.39999389648</ele>
        <time>2012-12-08T13:27:59Z</time>
      </trkpt>
      <trkpt lat="43.41986" lon="6.05136">
        <ele>252.60000610352</ele>
        <time>2012-12-08T13:28:09Z</time>
      </trkpt>
      <trkpt lat="43.42057" lon="6.05119">
        <ele>255</ele>
        <time>2012-12-08T13:28:33Z</time>
      </trkpt>
      <trkpt lat="43.42064" lon="6.05117">
        <ele>256.60000610352</ele>
        <time>2012-12-08T13:28:36Z</time>
      </trkpt>
      <trkpt lat="43.42119" lon="6.05123">
        <ele>258.79998779297</ele>
        <time>2012-12-08T13:28:57Z</time>
      </trkpt>
      <trkpt lat="43.42164" lon="6.05167">
        <ele>262.79998779297</ele>
        <time>2012-12-08T13:29:17Z</time>
      </trkpt>
      <trkpt lat="43.42175" lon="6.05173">
        <ele>262.79998779297</ele>
        <time>2012-12-08T13:29:21Z</time>
      </trkpt>
      <trkpt lat="43.4219" lon="6.0517">
        <ele>262.79998779297</ele>
        <time>2012-12-08T13:29:25Z</time>
      </trkpt>
      <trkpt lat="43.42195" lon="6.05172">
        <ele>264.79998779297</ele>
        <time>2012-12-08T13:29:34Z</time>
      </trkpt>
      <trkpt lat="43.42225" lon="6.05194">
        <ele>265.20001220703</ele>
        <time>2012-12-08T13:29:54Z</time>
      </trkpt>
      <trkpt lat="43.4223" lon="6.05201">
        <ele>267</ele>
        <time>2012-12-08T13:29:58Z</time>
      </trkpt>
      <trkpt lat="43.42237" lon="6.05207">
        <ele>267</ele>
        <time>2012-12-08T13:30:03Z</time>
      </trkpt>
      <trkpt lat="43.42245" lon="6.0521">
        <ele>267</ele>
        <time>2012-12-08T13:30:07Z</time>
      </trkpt>
      <trkpt lat="43.42271" lon="6.05206">
        <ele>269</ele>
        <time>2012-12-08T13:30:21Z</time>
      </trkpt>
      <trkpt lat="43.4228" lon="6.05198">
        <ele>270.20001220703</ele>
        <time>2012-12-08T13:30:28Z</time>
      </trkpt>
      <trkpt lat="43.42287" lon="6.05194">
        <ele>271.20001220703</ele>
        <time>2012-12-08T13:30:33Z</time>
      </trkpt>
      <trkpt lat="43.42309" lon="6.05206">
        <ele>271.20001220703</ele>
        <time>2012-12-08T13:30:45Z</time>
      </trkpt>
      <trkpt lat="43.42324" lon="6.05202">
        <ele>272</ele>
        <time>2012-12-08T13:30:54Z</time>
      </trkpt>
      <trkpt lat="43.42326" lon="6.05201">
        <ele>272.39999389648</ele>
        <time>2012-12-08T13:30:55Z</time>
      </trkpt>
      <trkpt lat="43.42338" lon="6.05201">
        <ele>273.20001220703</ele>
        <time>2012-12-08T13:31:02Z</time>
      </trkpt>
      <trkpt lat="43.42349" lon="6.05201">
        <ele>275.60000610352</ele>
        <time>2012-12-08T13:31:10Z</time>
      </trkpt>
      <trkpt lat="43.42373" lon="6.05188">
        <ele>278.20001220703</ele>
        <time>2012-12-08T13:31:25Z</time>
      </trkpt>
      <trkpt lat="43.42377" lon="6.05187">
        <ele>279.79998779297</ele>
        <time>2012-12-08T13:31:28Z</time>
      </trkpt>
      <trkpt lat="43.42384" lon="6.05187">
        <ele>281.20001220703</ele>
        <time>2012-12-08T13:31:33Z</time>
      </trkpt>
      <trkpt lat="43.42395" lon="6.05175">
        <ele>282.79998779297</ele>
        <time>2012-12-08T13:31:44Z</time>
      </trkpt>
      <trkpt lat="43.42397" lon="6.05176">
        <ele>284.20001220703</ele>
        <time>2012-12-08T13:31:47Z</time>
      </trkpt>
      <trkpt lat="43.42397" lon="6.05176">
        <ele>284.20001220703</ele>
        <time>2012-12-08T13:32:02Z</time>
      </trkpt>
      <trkpt lat="43.42398" lon="6.05176">
        <ele>284.20001220703</ele>
        <time>2012-12-08T13:34:02Z</time>
      </trkpt>
      <trkpt lat="43.42404" lon="6.0521">
        <ele>283.60000610352</ele>
        <time>2012-12-08T13:35:02Z</time>
      </trkpt>
      <trkpt lat="43.42413" lon="6.05224">
        <ele>282.20001220703</ele>
        <time>2012-12-08T13:35:05Z</time>
      </trkpt>
      <trkpt lat="43.42421" lon="6.0523">
        <ele>281</ele>
        <time>2012-12-08T13:35:07Z</time>
      </trkpt>
      <trkpt lat="43.42439" lon="6.05228">
        <ele>279.39999389648</ele>
        <time>2012-12-08T13:35:13Z</time>
      </trkpt>
      <trkpt lat="43.42453" lon="6.05219">
        <ele>279.39999389648</ele>
        <time>2012-12-08T13:35:18Z</time>
      </trkpt>
      <trkpt lat="43.42457" lon="6.05217">
        <ele>280</ele>
        <time>2012-12-08T13:35:20Z</time>
      </trkpt>
      <trkpt lat="43.4247" lon="6.05216">
        <ele>282.79998779297</ele>
        <time>2012-12-08T13:35:27Z</time>
      </trkpt>
      <trkpt lat="43.42492" lon="6.05224">
        <ele>284</ele>
        <time>2012-12-08T13:35:38Z</time>
      </trkpt>
      <trkpt lat="43.42513" lon="6.0523">
        <ele>284</ele>
        <time>2012-12-08T13:35:47Z</time>
      </trkpt>
      <trkpt lat="43.42538" lon="6.05229">
        <ele>284</ele>
        <time>2012-12-08T13:35:58Z</time>
      </trkpt>
      <trkpt lat="43.42558" lon="6.05221">
        <ele>285.79998779297</ele>
        <time>2012-12-08T13:36:08Z</time>
      </trkpt>
      <trkpt lat="43.42576" lon="6.05225">
        <ele>286.20001220703</ele>
        <time>2012-12-08T13:36:17Z</time>
      </trkpt>
      <trkpt lat="43.4263" lon="6.05271">
        <ele>287.79998779297</ele>
        <time>2012-12-08T13:36:52Z</time>
      </trkpt>
      <trkpt lat="43.42632" lon="6.05273">
        <ele>288.20001220703</ele>
        <time>2012-12-08T13:36:53Z</time>
      </trkpt>
      <trkpt lat="43.42647" lon="6.0529">
        <ele>288.20001220703</ele>
        <time>2012-12-08T13:37:05Z</time>
      </trkpt>
      <trkpt lat="43.42673" lon="6.05331">
        <ele>290.60000610352</ele>
        <time>2012-12-08T13:37:23Z</time>
      </trkpt>
      <trkpt lat="43.4268" lon="6.0534">
        <ele>292.39999389648</ele>
        <time>2012-12-08T13:37:29Z</time>
      </trkpt>
      <trkpt lat="43.42691" lon="6.05343">
        <ele>294.39999389648</ele>
        <time>2012-12-08T13:37:38Z</time>
      </trkpt>
      <trkpt lat="43.42704" lon="6.05342">
        <ele>294.39999389648</ele>
        <time>2012-12-08T13:37:47Z</time>
      </trkpt>
      <trkpt lat="43.42714" lon="6.05343">
        <ele>294.39999389648</ele>
        <time>2012-12-08T13:37:51Z</time>
      </trkpt>
      <trkpt lat="43.42718" lon="6.05352">
        <ele>296</ele>
        <time>2012-12-08T13:37:55Z</time>
      </trkpt>
      <trkpt lat="43.42717" lon="6.05387">
        <ele>298.20001220703</ele>
        <time>2012-12-08T13:38:11Z</time>
      </trkpt>
      <trkpt lat="43.42726" lon="6.05413">
        <ele>299.20001220703</ele>
        <time>2012-12-08T13:38:22Z</time>
      </trkpt>
      <trkpt lat="43.42731" lon="6.0543">
        <ele>301</ele>
        <time>2012-12-08T13:38:29Z</time>
      </trkpt>
      <trkpt lat="43.42733" lon="6.05449">
        <ele>301</ele>
        <time>2012-12-08T13:38:36Z</time>
      </trkpt>
      <trkpt lat="43.42725" lon="6.05472">
        <ele>302.20001220703</ele>
        <time>2012-12-08T13:38:46Z</time>
      </trkpt>
      <trkpt lat="43.42729" lon="6.05537">
        <ele>305.60000610352</ele>
        <time>2012-12-08T13:39:11Z</time>
      </trkpt>
      <trkpt lat="43.42736" lon="6.05554">
        <ele>307.20001220703</ele>
        <time>2012-12-08T13:39:18Z</time>
      </trkpt>
      <trkpt lat="43.42741" lon="6.0557">
        <ele>307.20001220703</ele>
        <time>2012-12-08T13:39:25Z</time>
      </trkpt>
      <trkpt lat="43.42751" lon="6.0558">
        <ele>309.39999389648</ele>
        <time>2012-12-08T13:39:31Z</time>
      </trkpt>
      <trkpt lat="43.42756" lon="6.05591">
        <ele>309.79998779297</ele>
        <time>2012-12-08T13:39:36Z</time>
      </trkpt>
      <trkpt lat="43.42756" lon="6.05601">
        <ele>311.60000610352</ele>
        <time>2012-12-08T13:39:40Z</time>
      </trkpt>
      <trkpt lat="43.42753" lon="6.05616">
        <ele>312</ele>
        <time>2012-12-08T13:39:46Z</time>
      </trkpt>
      <trkpt lat="43.42743" lon="6.05639">
        <ele>314</ele>
        <time>2012-12-08T13:39:58Z</time>
      </trkpt>
      <trkpt lat="43.4273" lon="6.05651">
        <ele>315.79998779297</ele>
        <time>2012-12-08T13:40:07Z</time>
      </trkpt>
      <trkpt lat="43.42721" lon="6.05672">
        <ele>316.20001220703</ele>
        <time>2012-12-08T13:40:18Z</time>
      </trkpt>
      <trkpt lat="43.42707" lon="6.05688">
        <ele>318.60000610352</ele>
        <time>2012-12-08T13:40:30Z</time>
      </trkpt>
      <trkpt lat="43.42696" lon="6.05729">
        <ele>322.20001220703</ele>
        <time>2012-12-08T13:40:52Z</time>
      </trkpt>
      <trkpt lat="43.42701" lon="6.05737">
        <ele>323.79998779297</ele>
        <time>2012-12-08T13:40:58Z</time>
      </trkpt>
      <trkpt lat="43.42703" lon="6.05737">
        <ele>323.79998779297</ele>
        <time>2012-12-08T13:41:00Z</time>
      </trkpt>
      <trkpt lat="43.42746" lon="6.05743">
        <ele>326</ele>
        <time>2012-12-08T13:41:27Z</time>
      </trkpt>
      <trkpt lat="43.42764" lon="6.05731">
        <ele>326</ele>
        <time>2012-12-08T13:41:36Z</time>
      </trkpt>
      <trkpt lat="43.42775" lon="6.05732">
        <ele>326</ele>
        <time>2012-12-08T13:41:41Z</time>
      </trkpt>
      <trkpt lat="43.42783" lon="6.05738">
        <ele>326</ele>
        <time>2012-12-08T13:41:46Z</time>
      </trkpt>
      <trkpt lat="43.42789" lon="6.05737">
        <ele>326.39999389648</ele>
        <time>2012-12-08T13:41:50Z</time>
      </trkpt>
      <trkpt lat="43.428" lon="6.05743">
        <ele>328</ele>
        <time>2012-12-08T13:41:57Z</time>
      </trkpt>
      <trkpt lat="43.42819" lon="6.05738">
        <ele>328</ele>
        <time>2012-12-08T13:42:06Z</time>
      </trkpt>
      <trkpt lat="43.42827" lon="6.05735">
        <ele>328</ele>
        <time>2012-12-08T13:42:10Z</time>
      </trkpt>
      <trkpt lat="43.42834" lon="6.0573">
        <ele>328</ele>
        <time>2012-12-08T13:46:32Z</time>
      </trkpt>
      <trkpt lat="43.42839" lon="6.05723">
        <ele>328</ele>
        <time>2012-12-08T13:46:36Z</time>
      </trkpt>
      <trkpt lat="43.42846" lon="6.05679">
        <ele>328</ele>
        <time>2012-12-08T13:46:51Z</time>
      </trkpt>
      <trkpt lat="43.42857" lon="6.05575">
        <ele>328</ele>
        <time>2012-12-08T13:47:18Z</time>
      </trkpt>
      <trkpt lat="43.42861" lon="6.05549">
        <ele>328</ele>
        <time>2012-12-08T13:47:24Z</time>
      </trkpt>
      <trkpt lat="43.42869" lon="6.05543">
        <ele>328</ele>
        <time>2012-12-08T13:47:29Z</time>
      </trkpt>
      <trkpt lat="43.42882" lon="6.05545">
        <ele>326.79998779297</ele>
        <time>2012-12-08T13:47:34Z</time>
      </trkpt>
      <trkpt lat="43.42896" lon="6.05556">
        <ele>326</ele>
        <time>2012-12-08T13:47:41Z</time>
      </trkpt>
      <trkpt lat="43.42909" lon="6.05551">
        <ele>326</ele>
        <time>2012-12-08T13:47:46Z</time>
      </trkpt>
      <trkpt lat="43.42932" lon="6.05534">
        <ele>324</ele>
        <time>2012-12-08T13:47:56Z</time>
      </trkpt>
      <trkpt lat="43.42945" lon="6.05529">
        <ele>324</ele>
        <time>2012-12-08T13:48:05Z</time>
      </trkpt>
      <trkpt lat="43.42965" lon="6.05521">
        <ele>324</ele>
        <time>2012-12-08T13:48:14Z</time>
      </trkpt>
      <trkpt lat="43.42966" lon="6.0552">
        <ele>324.39999389648</ele>
        <time>2012-12-08T13:48:15Z</time>
      </trkpt>
      <trkpt lat="43.42986" lon="6.05507">
        <ele>328.39999389648</ele>
        <time>2012-12-08T13:48:27Z</time>
      </trkpt>
      <trkpt lat="43.42992" lon="6.05504">
        <ele>328.79998779297</ele>
        <time>2012-12-08T13:48:32Z</time>
      </trkpt>
      <trkpt lat="43.43006" lon="6.05506">
        <ele>330.60000610352</ele>
        <time>2012-12-08T13:48:42Z</time>
      </trkpt>
      <trkpt lat="43.43007" lon="6.05506">
        <ele>331</ele>
        <time>2012-12-08T13:48:44Z</time>
      </trkpt>
      <trkpt lat="43.43007" lon="6.05506">
        <ele>332.60000610352</ele>
        <time>2012-12-08T13:49:07Z</time>
      </trkpt>
      <trkpt lat="43.43009" lon="6.05508">
        <ele>332.60000610352</ele>
        <time>2012-12-08T13:49:22Z</time>
      </trkpt>
      <trkpt lat="43.43024" lon="6.05565">
        <ele>330.39999389648</ele>
        <time>2012-12-08T13:49:37Z</time>
      </trkpt>
      <trkpt lat="43.43029" lon="6.05581">
        <ele>330.39999389648</ele>
        <time>2012-12-08T13:49:42Z</time>
      </trkpt>
      <trkpt lat="43.43033" lon="6.05609">
        <ele>328.60000610352</ele>
        <time>2012-12-08T13:49:51Z</time>
      </trkpt>
      <trkpt lat="43.43029" lon="6.05631">
        <ele>328.20001220703</ele>
        <time>2012-12-08T13:50:00Z</time>
      </trkpt>
      <trkpt lat="43.43026" lon="6.0566">
        <ele>326.60000610352</ele>
        <time>2012-12-08T13:50:05Z</time>
      </trkpt>
      <trkpt lat="43.43029" lon="6.05692">
        <ele>325.79998779297</ele>
        <time>2012-12-08T13:50:11Z</time>
      </trkpt>
      <trkpt lat="43.43022" lon="6.05729">
        <ele>323.20001220703</ele>
        <time>2012-12-08T13:50:19Z</time>
      </trkpt>
      <trkpt lat="43.43008" lon="6.0575">
        <ele>322</ele>
        <time>2012-12-08T13:50:25Z</time>
      </trkpt>
      <trkpt lat="43.43004" lon="6.05766">
        <ele>322</ele>
        <time>2012-12-08T13:50:29Z</time>
      </trkpt>
      <trkpt lat="43.43002" lon="6.05781">
        <ele>322</ele>
        <time>2012-12-08T13:50:34Z</time>
      </trkpt>
      <trkpt lat="43.43004" lon="6.05836">
        <ele>317.39999389648</ele>
        <time>2012-12-08T13:50:44Z</time>
      </trkpt>
      <trkpt lat="43.43005" lon="6.05846">
        <ele>315.79998779297</ele>
        <time>2012-12-08T13:50:46Z</time>
      </trkpt>
      <trkpt lat="43.4301" lon="6.05856">
        <ele>312.39999389648</ele>
        <time>2012-12-08T13:50:49Z</time>
      </trkpt>
      <trkpt lat="43.43018" lon="6.05862">
        <ele>310.20001220703</ele>
        <time>2012-12-08T13:50:52Z</time>
      </trkpt>
      <trkpt lat="43.43028" lon="6.05864">
        <ele>308.60000610352</ele>
        <time>2012-12-08T13:50:54Z</time>
      </trkpt>
      <trkpt lat="43.43063" lon="6.05852">
        <ele>301.60000610352</ele>
        <time>2012-12-08T13:51:02Z</time>
      </trkpt>
      <trkpt lat="43.43081" lon="6.05851">
        <ele>298</ele>
        <time>2012-12-08T13:51:06Z</time>
      </trkpt>
      <trkpt lat="43.4309" lon="6.05848">
        <ele>296.39999389648</ele>
        <time>2012-12-08T13:51:08Z</time>
      </trkpt>
      <trkpt lat="43.43106" lon="6.05843">
        <ele>291.39999389648</ele>
        <time>2012-12-08T13:51:13Z</time>
      </trkpt>
      <trkpt lat="43.43121" lon="6.05845">
        <ele>287.39999389648</ele>
        <time>2012-12-08T13:51:18Z</time>
      </trkpt>
      <trkpt lat="43.43137" lon="6.05843">
        <ele>285.20001220703</ele>
        <time>2012-12-08T13:51:21Z</time>
      </trkpt>
      <trkpt lat="43.43155" lon="6.05837">
        <ele>282.79998779297</ele>
        <time>2012-12-08T13:51:25Z</time>
      </trkpt>
      <trkpt lat="43.43165" lon="6.05834">
        <ele>281.60000610352</ele>
        <time>2012-12-08T13:51:27Z</time>
      </trkpt>
      <trkpt lat="43.4318" lon="6.05824">
        <ele>279.20001220703</ele>
        <time>2012-12-08T13:51:30Z</time>
      </trkpt>
      <trkpt lat="43.43187" lon="6.0581">
        <ele>276.79998779297</ele>
        <time>2012-12-08T13:51:33Z</time>
      </trkpt>
      <trkpt lat="43.43187" lon="6.05808">
        <ele>274.39999389648</ele>
        <time>2012-12-08T13:51:36Z</time>
      </trkpt>
      <trkpt lat="43.43187" lon="6.05808">
        <ele>274.39999389648</ele>
        <time>2012-12-08T13:51:54Z</time>
      </trkpt>
      <trkpt lat="43.43198" lon="6.05785">
        <ele>274.39999389648</ele>
        <time>2012-12-08T13:54:39Z</time>
      </trkpt>
      <trkpt lat="43.43209" lon="6.05771">
        <ele>272.60000610352</ele>
        <time>2012-12-08T13:54:45Z</time>
      </trkpt>
      <trkpt lat="43.43218" lon="6.05724">
        <ele>272.20001220703</ele>
        <time>2012-12-08T13:54:58Z</time>
      </trkpt>
      <trkpt lat="43.43223" lon="6.05687">
        <ele>272.20001220703</ele>
        <time>2012-12-08T13:55:08Z</time>
      </trkpt>
      <trkpt lat="43.43229" lon="6.05576">
        <ele>270.20001220703</ele>
        <time>2012-12-08T13:55:28Z</time>
      </trkpt>
      <trkpt lat="43.43232" lon="6.05563">
        <ele>270.20001220703</ele>
        <time>2012-12-08T13:55:30Z</time>
      </trkpt>
      <trkpt lat="43.43243" lon="6.05521">
        <ele>270.20001220703</ele>
        <time>2012-12-08T13:55:37Z</time>
      </trkpt>
      <trkpt lat="43.43289" lon="6.05385">
        <ele>263</ele>
        <time>2012-12-08T13:55:56Z</time>
      </trkpt>
      <trkpt lat="43.43301" lon="6.05367">
        <ele>265</ele>
        <time>2012-12-08T13:56:01Z</time>
      </trkpt>
      <trkpt lat="43.43315" lon="6.0534">
        <ele>265</ele>
        <time>2012-12-08T13:56:08Z</time>
      </trkpt>
      <trkpt lat="43.43344" lon="6.05274">
        <ele>264.20001220703</ele>
        <time>2012-12-08T13:56:22Z</time>
      </trkpt>
      <trkpt lat="43.43365" lon="6.05208">
        <ele>260.79998779297</ele>
        <time>2012-12-08T13:56:35Z</time>
      </trkpt>
      <trkpt lat="43.43372" lon="6.05191">
        <ele>261.20001220703</ele>
        <time>2012-12-08T13:56:39Z</time>
      </trkpt>
      <trkpt lat="43.43383" lon="6.05147">
        <ele>263</ele>
        <time>2012-12-08T13:56:48Z</time>
      </trkpt>
      <trkpt lat="43.43384" lon="6.05141">
        <ele>263.39999389648</ele>
        <time>2012-12-08T13:56:50Z</time>
      </trkpt>
      <trkpt lat="43.43391" lon="6.05129">
        <ele>265</ele>
        <time>2012-12-08T13:56:55Z</time>
      </trkpt>
      <trkpt lat="43.43393" lon="6.05115">
        <ele>265</ele>
        <time>2012-12-08T13:57:02Z</time>
      </trkpt>
      <trkpt lat="43.4339" lon="6.05122">
        <ele>265</ele>
        <time>2012-12-08T13:57:06Z</time>
      </trkpt>
      <trkpt lat="43.43387" lon="6.05135">
        <ele>265</ele>
        <time>2012-12-08T13:57:10Z</time>
      </trkpt>
      <trkpt lat="43.43378" lon="6.05161">
        <ele>265</ele>
        <time>2012-12-08T13:57:21Z</time>
      </trkpt>
      <trkpt lat="43.43378" lon="6.05162">
        <ele>263</ele>
        <time>2012-12-08T13:57:58Z</time>
      </trkpt>
      <trkpt lat="43.43378" lon="6.05162">
        <ele>263</ele>
        <time>2012-12-08T13:58:01Z</time>
      </trkpt>
      <trkpt lat="43.43401" lon="6.05101">
        <ele>266.39999389648</ele>
        <time>2012-12-08T13:58:32Z</time>
      </trkpt>
      <trkpt lat="43.43413" lon="6.05044">
        <ele>265.79998779297</ele>
        <time>2012-12-08T13:58:42Z</time>
      </trkpt>
      <trkpt lat="43.43427" lon="6.04962">
        <ele>262.39999389648</ele>
        <time>2012-12-08T13:58:53Z</time>
      </trkpt>
      <trkpt lat="43.43433" lon="6.04898">
        <ele>260.39999389648</ele>
        <time>2012-12-08T13:59:04Z</time>
      </trkpt>
      <trkpt lat="43.43439" lon="6.04787">
        <ele>262.60000610352</ele>
        <time>2012-12-08T13:59:25Z</time>
      </trkpt>
      <trkpt lat="43.43452" lon="6.04682">
        <ele>262.60000610352</ele>
        <time>2012-12-08T13:59:44Z</time>
      </trkpt>
      <trkpt lat="43.43462" lon="6.046">
        <ele>264.79998779297</ele>
        <time>2012-12-08T14:00:01Z</time>
      </trkpt>
      <trkpt lat="43.4347" lon="6.0457">
        <ele>264.79998779297</ele>
        <time>2012-12-08T14:00:08Z</time>
      </trkpt>
      <trkpt lat="43.43484" lon="6.04547">
        <ele>267.20001220703</ele>
        <time>2012-12-08T14:00:15Z</time>
      </trkpt>
      <trkpt lat="43.43492" lon="6.04526">
        <ele>267.20001220703</ele>
        <time>2012-12-08T14:00:20Z</time>
      </trkpt>
      <trkpt lat="43.43497" lon="6.04499">
        <ele>267.20001220703</ele>
        <time>2012-12-08T14:00:27Z</time>
      </trkpt>
      <trkpt lat="43.43498" lon="6.04473">
        <ele>267.20001220703</ele>
        <time>2012-12-08T14:00:33Z</time>
      </trkpt>
      <trkpt lat="43.43487" lon="6.04386">
        <ele>267.20001220703</ele>
        <time>2012-12-08T14:00:51Z</time>
      </trkpt>
      <trkpt lat="43.43497" lon="6.04288">
        <ele>267.20001220703</ele>
        <time>2012-12-08T14:01:09Z</time>
      </trkpt>
      <trkpt lat="43.43508" lon="6.04252">
        <ele>267.20001220703</ele>
        <time>2012-12-08T14:01:15Z</time>
      </trkpt>
      <trkpt lat="43.43526" lon="6.04236">
        <ele>267.20001220703</ele>
        <time>2012-12-08T14:01:20Z</time>
      </trkpt>
      <trkpt lat="43.43538" lon="6.04218">
        <ele>265.20001220703</ele>
        <time>2012-12-08T14:01:25Z</time>
      </trkpt>
      <trkpt lat="43.43542" lon="6.04202">
        <ele>265.20001220703</ele>
        <time>2012-12-08T14:01:29Z</time>
      </trkpt>
      <trkpt lat="43.43536" lon="6.04172">
        <ele>265.20001220703</ele>
        <time>2012-12-08T14:01:37Z</time>
      </trkpt>
      <trkpt lat="43.43538" lon="6.04154">
        <ele>266</ele>
        <time>2012-12-08T14:01:41Z</time>
      </trkpt>
      <trkpt lat="43.43551" lon="6.04124">
        <ele>267.39999389648</ele>
        <time>2012-12-08T14:01:50Z</time>
      </trkpt>
      <trkpt lat="43.43567" lon="6.0407">
        <ele>267.39999389648</ele>
        <time>2012-12-08T14:02:07Z</time>
      </trkpt>
      <trkpt lat="43.43578" lon="6.0405">
        <ele>267.39999389648</ele>
        <time>2012-12-08T14:02:13Z</time>
      </trkpt>
      <trkpt lat="43.43592" lon="6.04028">
        <ele>269.60000610352</ele>
        <time>2012-12-08T14:02:21Z</time>
      </trkpt>
      <trkpt lat="43.43606" lon="6.03993">
        <ele>271.60000610352</ele>
        <time>2012-12-08T14:02:32Z</time>
      </trkpt>
      <trkpt lat="43.43607" lon="6.03941">
        <ele>271.60000610352</ele>
        <time>2012-12-08T14:02:40Z</time>
      </trkpt>
      <trkpt lat="43.43599" lon="6.03929">
        <ele>270.20001220703</ele>
        <time>2012-12-08T14:02:43Z</time>
      </trkpt>
      <trkpt lat="43.43595" lon="6.03913">
        <ele>269.39999389648</ele>
        <time>2012-12-08T14:02:47Z</time>
      </trkpt>
      <trkpt lat="43.43594" lon="6.03872">
        <ele>269.79998779297</ele>
        <time>2012-12-08T14:02:59Z</time>
      </trkpt>
      <trkpt lat="43.43595" lon="6.0386">
        <ele>271.39999389648</ele>
        <time>2012-12-08T14:03:03Z</time>
      </trkpt>
      <trkpt lat="43.43591" lon="6.03835">
        <ele>271.39999389648</ele>
        <time>2012-12-08T14:03:10Z</time>
      </trkpt>
      <trkpt lat="43.43574" lon="6.03792">
        <ele>273.60000610352</ele>
        <time>2012-12-08T14:03:26Z</time>
      </trkpt>
      <trkpt lat="43.43576" lon="6.03766">
        <ele>273.60000610352</ele>
        <time>2012-12-08T14:03:34Z</time>
      </trkpt>
      <trkpt lat="43.43576" lon="6.03755">
        <ele>273.60000610352</ele>
        <time>2012-12-08T14:03:37Z</time>
      </trkpt>
      <trkpt lat="43.43575" lon="6.03705">
        <ele>273.60000610352</ele>
        <time>2012-12-08T14:03:46Z</time>
      </trkpt>
      <trkpt lat="43.43585" lon="6.03628">
        <ele>273.60000610352</ele>
        <time>2012-12-08T14:04:07Z</time>
      </trkpt>
      <trkpt lat="43.43584" lon="6.03609">
        <ele>273.60000610352</ele>
        <time>2012-12-08T14:04:12Z</time>
      </trkpt>
      <trkpt lat="43.43585" lon="6.03582">
        <ele>273.60000610352</ele>
        <time>2012-12-08T14:04:17Z</time>
      </trkpt>
      <trkpt lat="43.43604" lon="6.03541">
        <ele>272.39999389648</ele>
        <time>2012-12-08T14:04:28Z</time>
      </trkpt>
      <trkpt lat="43.43612" lon="6.03515">
        <ele>271.60000610352</ele>
        <time>2012-12-08T14:04:34Z</time>
      </trkpt>
      <trkpt lat="43.43614" lon="6.0348">
        <ele>271.60000610352</ele>
        <time>2012-12-08T14:04:43Z</time>
      </trkpt>
      <trkpt lat="43.43626" lon="6.03445">
        <ele>272.39999389648</ele>
        <time>2012-12-08T14:04:53Z</time>
      </trkpt>
      <trkpt lat="43.43626" lon="6.03393">
        <ele>273.60000610352</ele>
        <time>2012-12-08T14:05:06Z</time>
      </trkpt>
      <trkpt lat="43.43635" lon="6.03379">
        <ele>273.60000610352</ele>
        <time>2012-12-08T14:05:10Z</time>
      </trkpt>
      <trkpt lat="43.43657" lon="6.03335">
        <ele>273.60000610352</ele>
        <time>2012-12-08T14:05:22Z</time>
      </trkpt>
      <trkpt lat="43.43669" lon="6.03304">
        <ele>273.60000610352</ele>
        <time>2012-12-08T14:05:32Z</time>
      </trkpt>
      <trkpt lat="43.43681" lon="6.03293">
        <ele>273.60000610352</ele>
        <time>2012-12-08T14:05:38Z</time>
      </trkpt>
      <trkpt lat="43.4369" lon="6.03265">
        <ele>273.60000610352</ele>
        <time>2012-12-08T14:05:46Z</time>
      </trkpt>
      <trkpt lat="43.43687" lon="6.0323">
        <ele>273.60000610352</ele>
        <time>2012-12-08T14:05:56Z</time>
      </trkpt>
      <trkpt lat="43.43692" lon="6.03201">
        <ele>273.60000610352</ele>
        <time>2012-12-08T14:06:08Z</time>
      </trkpt>
      <trkpt lat="43.43693" lon="6.03187">
        <ele>275.60000610352</ele>
        <time>2012-12-08T14:06:27Z</time>
      </trkpt>
      <trkpt lat="43.43692" lon="6.03171">
        <ele>275.60000610352</ele>
        <time>2012-12-08T14:06:38Z</time>
      </trkpt>
      <trkpt lat="43.4369" lon="6.03134">
        <ele>275.60000610352</ele>
        <time>2012-12-08T14:07:13Z</time>
      </trkpt>
      <trkpt lat="43.43696" lon="6.03091">
        <ele>275.60000610352</ele>
        <time>2012-12-08T14:07:36Z</time>
      </trkpt>
      <trkpt lat="43.43707" lon="6.03069">
        <ele>275.60000610352</ele>
        <time>2012-12-08T14:07:43Z</time>
      </trkpt>
      <trkpt lat="43.43737" lon="6.03046">
        <ele>275.60000610352</ele>
        <time>2012-12-08T14:07:54Z</time>
      </trkpt>
      <trkpt lat="43.43762" lon="6.03036">
        <ele>274.20001220703</ele>
        <time>2012-12-08T14:08:01Z</time>
      </trkpt>
      <trkpt lat="43.43788" lon="6.02983">
        <ele>273.39999389648</ele>
        <time>2012-12-08T14:08:16Z</time>
      </trkpt>
      <trkpt lat="43.43789" lon="6.0296">
        <ele>273.39999389648</ele>
        <time>2012-12-08T14:08:23Z</time>
      </trkpt>
      <trkpt lat="43.43796" lon="6.0293">
        <ele>273.39999389648</ele>
        <time>2012-12-08T14:08:32Z</time>
      </trkpt>
      <trkpt lat="43.43795" lon="6.02882">
        <ele>273.39999389648</ele>
        <time>2012-12-08T14:08:46Z</time>
      </trkpt>
      <trkpt lat="43.43802" lon="6.02854">
        <ele>273.39999389648</ele>
        <time>2012-12-08T14:08:54Z</time>
      </trkpt>
      <trkpt lat="43.43809" lon="6.02834">
        <ele>273.39999389648</ele>
        <time>2012-12-08T14:09:00Z</time>
      </trkpt>
      <trkpt lat="43.43806" lon="6.02812">
        <ele>273.79998779297</ele>
        <time>2012-12-08T14:09:07Z</time>
      </trkpt>
      <trkpt lat="43.43789" lon="6.02783">
        <ele>275.60000610352</ele>
        <time>2012-12-08T14:09:21Z</time>
      </trkpt>
      <trkpt lat="43.43784" lon="6.0273">
        <ele>275.60000610352</ele>
        <time>2012-12-08T14:09:39Z</time>
      </trkpt>
      <trkpt lat="43.43783" lon="6.02726">
        <ele>275.60000610352</ele>
        <time>2012-12-08T14:09:41Z</time>
      </trkpt>
      <trkpt lat="43.43769" lon="6.02717">
        <ele>277.60000610352</ele>
        <time>2012-12-08T14:09:51Z</time>
      </trkpt>
      <trkpt lat="43.43764" lon="6.02709">
        <ele>277.60000610352</ele>
        <time>2012-12-08T14:09:56Z</time>
      </trkpt>
      <trkpt lat="43.43769" lon="6.02702">
        <ele>277.60000610352</ele>
        <time>2012-12-08T14:10:02Z</time>
      </trkpt>
      <trkpt lat="43.43772" lon="6.02701">
        <ele>277.60000610352</ele>
        <time>2012-12-08T14:10:04Z</time>
      </trkpt>
      <trkpt lat="43.43776" lon="6.027">
        <ele>277.60000610352</ele>
        <time>2012-12-08T14:10:06Z</time>
      </trkpt>
      <trkpt lat="43.43787" lon="6.02681">
        <ele>277.60000610352</ele>
        <time>2012-12-08T14:10:15Z</time>
      </trkpt>
      <trkpt lat="43.43785" lon="6.02644">
        <ele>277.60000610352</ele>
        <time>2012-12-08T14:10:30Z</time>
      </trkpt>
      <trkpt lat="43.43794" lon="6.02594">
        <ele>277.60000610352</ele>
        <time>2012-12-08T14:10:44Z</time>
      </trkpt>
      <trkpt lat="43.4379" lon="6.02526">
        <ele>277.60000610352</ele>
        <time>2012-12-08T14:11:03Z</time>
      </trkpt>
      <trkpt lat="43.43795" lon="6.02514">
        <ele>277.60000610352</ele>
        <time>2012-12-08T14:11:07Z</time>
      </trkpt>
      <trkpt lat="43.43797" lon="6.02483">
        <ele>277.60000610352</ele>
        <time>2012-12-08T14:11:16Z</time>
      </trkpt>
      <trkpt lat="43.43795" lon="6.02477">
        <ele>277.60000610352</ele>
        <time>2012-12-08T14:11:19Z</time>
      </trkpt>
      <trkpt lat="43.43787" lon="6.02477">
        <ele>277.60000610352</ele>
        <time>2012-12-08T14:11:27Z</time>
      </trkpt>
      <trkpt lat="43.43777" lon="6.02467">
        <ele>277.60000610352</ele>
        <time>2012-12-08T14:11:37Z</time>
      </trkpt>
      <trkpt lat="43.43774" lon="6.02454">
        <ele>278.79998779297</ele>
        <time>2012-12-08T14:11:45Z</time>
      </trkpt>
      <trkpt lat="43.43776" lon="6.02439">
        <ele>281.79998779297</ele>
        <time>2012-12-08T14:11:51Z</time>
      </trkpt>
      <trkpt lat="43.43771" lon="6.02431">
        <ele>281.79998779297</ele>
        <time>2012-12-08T14:11:55Z</time>
      </trkpt>
      <trkpt lat="43.43745" lon="6.02395">
        <ele>284.20001220703</ele>
        <time>2012-12-08T14:12:16Z</time>
      </trkpt>
      <trkpt lat="43.43734" lon="6.02369">
        <ele>286.20001220703</ele>
        <time>2012-12-08T14:12:31Z</time>
      </trkpt>
      <trkpt lat="43.43727" lon="6.02369">
        <ele>286.20001220703</ele>
        <time>2012-12-08T14:12:35Z</time>
      </trkpt>
      <trkpt lat="43.43722" lon="6.02363">
        <ele>286.20001220703</ele>
        <time>2012-12-08T14:12:39Z</time>
      </trkpt>
      <trkpt lat="43.43717" lon="6.02346">
        <ele>286.20001220703</ele>
        <time>2012-12-08T14:12:45Z</time>
      </trkpt>
      <trkpt lat="43.43719" lon="6.02331">
        <ele>286.20001220703</ele>
        <time>2012-12-08T14:12:49Z</time>
      </trkpt>
      <trkpt lat="43.43725" lon="6.02321">
        <ele>285.79998779297</ele>
        <time>2012-12-08T14:12:53Z</time>
      </trkpt>
      <trkpt lat="43.43731" lon="6.023">
        <ele>283.79998779297</ele>
        <time>2012-12-08T14:12:57Z</time>
      </trkpt>
      <trkpt lat="43.43755" lon="6.02268">
        <ele>279.79998779297</ele>
        <time>2012-12-08T14:13:04Z</time>
      </trkpt>
      <trkpt lat="43.43765" lon="6.02249">
        <ele>277.60000610352</ele>
        <time>2012-12-08T14:13:08Z</time>
      </trkpt>
      <trkpt lat="43.43773" lon="6.02192">
        <ele>277.20001220703</ele>
        <time>2012-12-08T14:13:21Z</time>
      </trkpt>
      <trkpt lat="43.4379" lon="6.0215">
        <ele>277.20001220703</ele>
        <time>2012-12-08T14:13:30Z</time>
      </trkpt>
      <trkpt lat="43.43812" lon="6.02118">
        <ele>277.20001220703</ele>
        <time>2012-12-08T14:13:39Z</time>
      </trkpt>
      <trkpt lat="43.43818" lon="6.02083">
        <ele>278.79998779297</ele>
        <time>2012-12-08T14:13:47Z</time>
      </trkpt>
      <trkpt lat="43.43835" lon="6.02041">
        <ele>279.20001220703</ele>
        <time>2012-12-08T14:13:55Z</time>
      </trkpt>
      <trkpt lat="43.43836" lon="6.02026">
        <ele>279.20001220703</ele>
        <time>2012-12-08T14:13:58Z</time>
      </trkpt>
      <trkpt lat="43.4384" lon="6.01974">
        <ele>279.20001220703</ele>
        <time>2012-12-08T14:14:09Z</time>
      </trkpt>
      <trkpt lat="43.43849" lon="6.0195">
        <ele>279.20001220703</ele>
        <time>2012-12-08T14:14:14Z</time>
      </trkpt>
      <trkpt lat="43.43861" lon="6.01931">
        <ele>279.20001220703</ele>
        <time>2012-12-08T14:14:19Z</time>
      </trkpt>
      <trkpt lat="43.43867" lon="6.0191">
        <ele>279.20001220703</ele>
        <time>2012-12-08T14:14:24Z</time>
      </trkpt>
      <trkpt lat="43.43872" lon="6.01884">
        <ele>279.20001220703</ele>
        <time>2012-12-08T14:14:30Z</time>
      </trkpt>
      <trkpt lat="43.43879" lon="6.01832">
        <ele>279.20001220703</ele>
        <time>2012-12-08T14:14:42Z</time>
      </trkpt>
      <trkpt lat="43.43879" lon="6.01819">
        <ele>280.60000610352</ele>
        <time>2012-12-08T14:14:45Z</time>
      </trkpt>
      <trkpt lat="43.4388" lon="6.01808">
        <ele>281.39999389648</ele>
        <time>2012-12-08T14:14:48Z</time>
      </trkpt>
      <trkpt lat="43.43888" lon="6.01769">
        <ele>283.60000610352</ele>
        <time>2012-12-08T14:15:00Z</time>
      </trkpt>
      <trkpt lat="43.43883" lon="6.01736">
        <ele>285.60000610352</ele>
        <time>2012-12-08T14:15:11Z</time>
      </trkpt>
      <trkpt lat="43.43877" lon="6.01721">
        <ele>285.60000610352</ele>
        <time>2012-12-08T14:15:17Z</time>
      </trkpt>
      <trkpt lat="43.43872" lon="6.01702">
        <ele>286</ele>
        <time>2012-12-08T14:15:23Z</time>
      </trkpt>
      <trkpt lat="43.43868" lon="6.01667">
        <ele>287.60000610352</ele>
        <time>2012-12-08T14:15:35Z</time>
      </trkpt>
      <trkpt lat="43.43864" lon="6.01664">
        <ele>287.60000610352</ele>
        <time>2012-12-08T14:15:37Z</time>
      </trkpt>
      <trkpt lat="43.43859" lon="6.01665">
        <ele>287.60000610352</ele>
        <time>2012-12-08T14:15:39Z</time>
      </trkpt>
      <trkpt lat="43.43835" lon="6.01686">
        <ele>287.60000610352</ele>
        <time>2012-12-08T14:15:51Z</time>
      </trkpt>
      <trkpt lat="43.43822" lon="6.01693">
        <ele>287.60000610352</ele>
        <time>2012-12-08T14:15:56Z</time>
      </trkpt>
      <trkpt lat="43.43806" lon="6.01699">
        <ele>288.60000610352</ele>
        <time>2012-12-08T14:16:02Z</time>
      </trkpt>
      <trkpt lat="43.43798" lon="6.01702">
        <ele>289.79998779297</ele>
        <time>2012-12-08T14:16:05Z</time>
      </trkpt>
      <trkpt lat="43.43776" lon="6.01701">
        <ele>289.79998779297</ele>
        <time>2012-12-08T14:16:13Z</time>
      </trkpt>
      <trkpt lat="43.43746" lon="6.01689">
        <ele>291.79998779297</ele>
        <time>2012-12-08T14:16:26Z</time>
      </trkpt>
      <trkpt lat="43.43739" lon="6.01686">
        <ele>291.79998779297</ele>
        <time>2012-12-08T14:16:32Z</time>
      </trkpt>
      <trkpt lat="43.43739" lon="6.01686">
        <ele>293.79998779297</ele>
        <time>2012-12-08T14:17:02Z</time>
      </trkpt>
      <trkpt lat="43.43732" lon="6.01683">
        <ele>293.79998779297</ele>
        <time>2012-12-08T14:19:22Z</time>
      </trkpt>
      <trkpt lat="43.43715" lon="6.01671">
        <ele>293.79998779297</ele>
        <time>2012-12-08T14:19:33Z</time>
      </trkpt>
      <trkpt lat="43.43692" lon="6.01648">
        <ele>296</ele>
        <time>2012-12-08T14:19:47Z</time>
      </trkpt>
      <trkpt lat="43.43668" lon="6.01643">
        <ele>296</ele>
        <time>2012-12-08T14:19:58Z</time>
      </trkpt>
      <trkpt lat="43.43664" lon="6.01642">
        <ele>296</ele>
        <time>2012-12-08T14:20:00Z</time>
      </trkpt>
      <trkpt lat="43.43655" lon="6.01638">
        <ele>296.39999389648</ele>
        <time>2012-12-08T14:20:04Z</time>
      </trkpt>
      <trkpt lat="43.43641" lon="6.01614">
        <ele>298</ele>
        <time>2012-12-08T14:20:13Z</time>
      </trkpt>
      <trkpt lat="43.43631" lon="6.01592">
        <ele>298</ele>
        <time>2012-12-08T14:20:20Z</time>
      </trkpt>
      <trkpt lat="43.43606" lon="6.01563">
        <ele>298.39999389648</ele>
        <time>2012-12-08T14:20:34Z</time>
      </trkpt>
      <trkpt lat="43.436" lon="6.01558">
        <ele>299.60000610352</ele>
        <time>2012-12-08T14:20:37Z</time>
      </trkpt>
      <trkpt lat="43.43551" lon="6.01546">
        <ele>302.60000610352</ele>
        <time>2012-12-08T14:21:02Z</time>
      </trkpt>
      <trkpt lat="43.43542" lon="6.01546">
        <ele>304.20001220703</ele>
        <time>2012-12-08T14:21:06Z</time>
      </trkpt>
      <trkpt lat="43.43508" lon="6.0153">
        <ele>304.20001220703</ele>
        <time>2012-12-08T14:21:24Z</time>
      </trkpt>
      <trkpt lat="43.435" lon="6.01532">
        <ele>305.20001220703</ele>
        <time>2012-12-08T14:21:30Z</time>
      </trkpt>
      <trkpt lat="43.43468" lon="6.01531">
        <ele>308.39999389648</ele>
        <time>2012-12-08T14:21:50Z</time>
      </trkpt>
      <trkpt lat="43.43446" lon="6.01516">
        <ele>308.79998779297</ele>
        <time>2012-12-08T14:22:05Z</time>
      </trkpt>
      <trkpt lat="43.43437" lon="6.01475">
        <ele>311.39999389648</ele>
        <time>2012-12-08T14:22:23Z</time>
      </trkpt>
      <trkpt lat="43.4343" lon="6.01461">
        <ele>312.60000610352</ele>
        <time>2012-12-08T14:22:29Z</time>
      </trkpt>
      <trkpt lat="43.43431" lon="6.01397">
        <ele>315.60000610352</ele>
        <time>2012-12-08T14:22:57Z</time>
      </trkpt>
      <trkpt lat="43.43423" lon="6.01344">
        <ele>316.79998779297</ele>
        <time>2012-12-08T14:23:20Z</time>
      </trkpt>
      <trkpt lat="43.43425" lon="6.01336">
        <ele>318.39999389648</ele>
        <time>2012-12-08T14:23:25Z</time>
      </trkpt>
      <trkpt lat="43.43439" lon="6.0132">
        <ele>320.20001220703</ele>
        <time>2012-12-08T14:23:36Z</time>
      </trkpt>
      <trkpt lat="43.43441" lon="6.01311">
        <ele>321.39999389648</ele>
        <time>2012-12-08T14:23:40Z</time>
      </trkpt>
      <trkpt lat="43.43441" lon="6.01311">
        <ele>323</ele>
        <time>2012-12-08T14:23:49Z</time>
      </trkpt>
      <trkpt lat="43.43444" lon="6.01307">
        <ele>323</ele>
        <time>2012-12-08T14:24:00Z</time>
      </trkpt>
      <trkpt lat="43.43453" lon="6.0129">
        <ele>324.79998779297</ele>
        <time>2012-12-08T14:24:12Z</time>
      </trkpt>
      <trkpt lat="43.43456" lon="6.01263">
        <ele>326.79998779297</ele>
        <time>2012-12-08T14:24:26Z</time>
      </trkpt>
      <trkpt lat="43.43457" lon="6.01258">
        <ele>327.20001220703</ele>
        <time>2012-12-08T14:24:29Z</time>
      </trkpt>
      <trkpt lat="43.43474" lon="6.01235">
        <ele>327.20001220703</ele>
        <time>2012-12-08T14:24:44Z</time>
      </trkpt>
      <trkpt lat="43.43477" lon="6.01214">
        <ele>329.39999389648</ele>
        <time>2012-12-08T14:24:54Z</time>
      </trkpt>
      <trkpt lat="43.43474" lon="6.01153">
        <ele>331.39999389648</ele>
        <time>2012-12-08T14:25:21Z</time>
      </trkpt>
      <trkpt lat="43.43496" lon="6.0111">
        <ele>334.79998779297</ele>
        <time>2012-12-08T14:25:45Z</time>
      </trkpt>
      <trkpt lat="43.43501" lon="6.01083">
        <ele>335.60000610352</ele>
        <time>2012-12-08T14:25:57Z</time>
      </trkpt>
      <trkpt lat="43.43493" lon="6.01039">
        <ele>337.60000610352</ele>
        <time>2012-12-08T14:26:17Z</time>
      </trkpt>
      <trkpt lat="43.43492" lon="6.01007">
        <ele>339.60000610352</ele>
        <time>2012-12-08T14:26:31Z</time>
      </trkpt>
      <trkpt lat="43.43505" lon="6.00943">
        <ele>346</ele>
        <time>2012-12-08T14:27:04Z</time>
      </trkpt>
      <trkpt lat="43.4351" lon="6.00903">
        <ele>349.20001220703</ele>
        <time>2012-12-08T14:27:25Z</time>
      </trkpt>
      <trkpt lat="43.43517" lon="6.00877">
        <ele>352.20001220703</ele>
        <time>2012-12-08T14:27:39Z</time>
      </trkpt>
      <trkpt lat="43.43525" lon="6.00851">
        <ele>354.20001220703</ele>
        <time>2012-12-08T14:27:53Z</time>
      </trkpt>
      <trkpt lat="43.43531" lon="6.00819">
        <ele>354.20001220703</ele>
        <time>2012-12-08T14:28:13Z</time>
      </trkpt>
      <trkpt lat="43.43531" lon="6.00819">
        <ele>356.20001220703</ele>
        <time>2012-12-08T14:29:25Z</time>
      </trkpt>
      <trkpt lat="43.43544" lon="6.00773">
        <ele>356.20001220703</ele>
        <time>2012-12-08T14:29:50Z</time>
      </trkpt>
      <trkpt lat="43.43561" lon="6.00725">
        <ele>355.79998779297</ele>
        <time>2012-12-08T14:30:00Z</time>
      </trkpt>
      <trkpt lat="43.43579" lon="6.00682">
        <ele>351.20001220703</ele>
        <time>2012-12-08T14:30:07Z</time>
      </trkpt>
      <trkpt lat="43.43579" lon="6.00668">
        <ele>349.79998779297</ele>
        <time>2012-12-08T14:30:09Z</time>
      </trkpt>
      <trkpt lat="43.43574" lon="6.00655">
        <ele>348.60000610352</ele>
        <time>2012-12-08T14:30:11Z</time>
      </trkpt>
      <trkpt lat="43.43555" lon="6.00632">
        <ele>344.79998779297</ele>
        <time>2012-12-08T14:30:16Z</time>
      </trkpt>
      <trkpt lat="43.43554" lon="6.00628">
        <ele>344.20001220703</ele>
        <time>2012-12-08T14:30:17Z</time>
      </trkpt>
      <trkpt lat="43.43558" lon="6.00607">
        <ele>342.39999389648</ele>
        <time>2012-12-08T14:30:22Z</time>
      </trkpt>
      <trkpt lat="43.43562" lon="6.00597">
        <ele>342</ele>
        <time>2012-12-08T14:30:24Z</time>
      </trkpt>
      <trkpt lat="43.43571" lon="6.00587">
        <ele>340.60000610352</ele>
        <time>2012-12-08T14:30:27Z</time>
      </trkpt>
      <trkpt lat="43.43578" lon="6.00571">
        <ele>340.20001220703</ele>
        <time>2012-12-08T14:30:31Z</time>
      </trkpt>
      <trkpt lat="43.43584" lon="6.00556">
        <ele>339</ele>
        <time>2012-12-08T14:30:34Z</time>
      </trkpt>
      <trkpt lat="43.43612" lon="6.00516">
        <ele>336</ele>
        <time>2012-12-08T14:30:44Z</time>
      </trkpt>
      <trkpt lat="43.4362" lon="6.00487">
        <ele>334.79998779297</ele>
        <time>2012-12-08T14:30:49Z</time>
      </trkpt>
      <trkpt lat="43.43621" lon="6.00427">
        <ele>331.39999389648</ele>
        <time>2012-12-08T14:30:59Z</time>
      </trkpt>
      <trkpt lat="43.43612" lon="6.00401">
        <ele>329.39999389648</ele>
        <time>2012-12-08T14:31:04Z</time>
      </trkpt>
      <trkpt lat="43.4361" lon="6.00395">
        <ele>328.60000610352</ele>
        <time>2012-12-08T14:31:05Z</time>
      </trkpt>
      <trkpt lat="43.43608" lon="6.00381">
        <ele>327.60000610352</ele>
        <time>2012-12-08T14:31:07Z</time>
      </trkpt>
      <trkpt lat="43.43614" lon="6.00355">
        <ele>327.20001220703</ele>
        <time>2012-12-08T14:31:11Z</time>
      </trkpt>
      <trkpt lat="43.43626" lon="6.0033">
        <ele>325</ele>
        <time>2012-12-08T14:31:16Z</time>
      </trkpt>
      <trkpt lat="43.43655" lon="6.00293">
        <ele>324</ele>
        <time>2012-12-08T14:31:24Z</time>
      </trkpt>
      <trkpt lat="43.43671" lon="6.0027">
        <ele>320.79998779297</ele>
        <time>2012-12-08T14:31:30Z</time>
      </trkpt>
      <trkpt lat="43.43673" lon="6.00264">
        <ele>320.39999389648</ele>
        <time>2012-12-08T14:31:34Z</time>
      </trkpt>
      <trkpt lat="43.4368" lon="6.00258">
        <ele>320.39999389648</ele>
        <time>2012-12-08T14:31:46Z</time>
      </trkpt>
      <trkpt lat="43.4365" lon="6.00223">
        <ele>320.39999389648</ele>
        <time>2012-12-08T14:32:40Z</time>
      </trkpt>
      <trkpt lat="43.43638" lon="6.00216">
        <ele>320.39999389648</ele>
        <time>2012-12-08T14:32:45Z</time>
      </trkpt>
      <trkpt lat="43.43607" lon="6.00205">
        <ele>322.79998779297</ele>
        <time>2012-12-08T14:33:01Z</time>
      </trkpt>
      <trkpt lat="43.43561" lon="6.00189">
        <ele>326.39999389648</ele>
        <time>2012-12-08T14:33:43Z</time>
      </trkpt>
      <trkpt lat="43.43539" lon="6.00187">
        <ele>328.79998779297</ele>
        <time>2012-12-08T14:33:57Z</time>
      </trkpt>
      <trkpt lat="43.43531" lon="6.00184">
        <ele>328.79998779297</ele>
        <time>2012-12-08T14:34:16Z</time>
      </trkpt>
      <trkpt lat="43.43505" lon="6.00174">
        <ele>330.60000610352</ele>
        <time>2012-12-08T14:34:37Z</time>
      </trkpt>
      <trkpt lat="43.43493" lon="6.00172">
        <ele>331</ele>
        <time>2012-12-08T14:34:45Z</time>
      </trkpt>
      <trkpt lat="43.43477" lon="6.00173">
        <ele>333</ele>
        <time>2012-12-08T14:34:54Z</time>
      </trkpt>
      <trkpt lat="43.43462" lon="6.00173">
        <ele>335</ele>
        <time>2012-12-08T14:35:21Z</time>
      </trkpt>
      <trkpt lat="43.43441" lon="6.00188">
        <ele>337</ele>
        <time>2012-12-08T14:35:39Z</time>
      </trkpt>
      <trkpt lat="43.4341" lon="6.00176">
        <ele>340</ele>
        <time>2012-12-08T14:36:01Z</time>
      </trkpt>
      <trkpt lat="43.434" lon="6.00168">
        <ele>341.39999389648</ele>
        <time>2012-12-08T14:36:09Z</time>
      </trkpt>
      <trkpt lat="43.43392" lon="6.00155">
        <ele>343.39999389648</ele>
        <time>2012-12-08T14:36:19Z</time>
      </trkpt>
      <trkpt lat="43.43373" lon="6.00149">
        <ele>345.60000610352</ele>
        <time>2012-12-08T14:36:33Z</time>
      </trkpt>
      <trkpt lat="43.43362" lon="6.00135">
        <ele>346</ele>
        <time>2012-12-08T14:36:44Z</time>
      </trkpt>
      <trkpt lat="43.43346" lon="6.00089">
        <ele>351</ele>
        <time>2012-12-08T14:37:10Z</time>
      </trkpt>
      <trkpt lat="43.43346" lon="6.00084">
        <ele>351.79998779297</ele>
        <time>2012-12-08T14:37:12Z</time>
      </trkpt>
      <trkpt lat="43.43344" lon="6.00067">
        <ele>352.60000610352</ele>
        <time>2012-12-08T14:37:25Z</time>
      </trkpt>
      <trkpt lat="43.43342" lon="6.00064">
        <ele>353.39999389648</ele>
        <time>2012-12-08T14:37:27Z</time>
      </trkpt>
      <trkpt lat="43.4334" lon="6.00064">
        <ele>354</ele>
        <time>2012-12-08T14:37:41Z</time>
      </trkpt>
      <trkpt lat="43.43338" lon="6.00062">
        <ele>354</ele>
        <time>2012-12-08T14:37:46Z</time>
      </trkpt>
      <trkpt lat="43.43334" lon="6.00066">
        <ele>354</ele>
        <time>2012-12-08T14:38:00Z</time>
      </trkpt>
      <trkpt lat="43.43321" lon="6.00047">
        <ele>356</ele>
        <time>2012-12-08T14:38:16Z</time>
      </trkpt>
      <trkpt lat="43.43315" lon="6.00037">
        <ele>358.20001220703</ele>
        <time>2012-12-08T14:38:34Z</time>
      </trkpt>
      <trkpt lat="43.43312" lon="6.00037">
        <ele>358.20001220703</ele>
        <time>2012-12-08T14:38:41Z</time>
      </trkpt>
      <trkpt lat="43.43312" lon="6.00037">
        <ele>360.20001220703</ele>
        <time>2012-12-08T14:38:54Z</time>
      </trkpt>
      <trkpt lat="43.43311" lon="6.00038">
        <ele>360.20001220703</ele>
        <time>2012-12-08T14:38:59Z</time>
      </trkpt>
      <trkpt lat="43.43294" lon="6.00036">
        <ele>362.60000610352</ele>
        <time>2012-12-08T14:39:13Z</time>
      </trkpt>
      <trkpt lat="43.43291" lon="6.00035">
        <ele>362.60000610352</ele>
        <time>2012-12-08T14:39:15Z</time>
      </trkpt>
      <trkpt lat="43.43289" lon="6.00032">
        <ele>364.60000610352</ele>
        <time>2012-12-08T14:39:26Z</time>
      </trkpt>
      <trkpt lat="43.4328" lon="6.00028">
        <ele>365</ele>
        <time>2012-12-08T14:39:40Z</time>
      </trkpt>
      <trkpt lat="43.43275" lon="6.00026">
        <ele>366.60000610352</ele>
        <time>2012-12-08T14:39:52Z</time>
      </trkpt>
      <trkpt lat="43.43262" lon="6.00025">
        <ele>370.20001220703</ele>
        <time>2012-12-08T14:40:21Z</time>
      </trkpt>
      <trkpt lat="43.43261" lon="6.00027">
        <ele>372.79998779297</ele>
        <time>2012-12-08T14:40:36Z</time>
      </trkpt>
      <trkpt lat="43.43261" lon="6.00027">
        <ele>372.79998779297</ele>
        <time>2012-12-08T14:40:45Z</time>
      </trkpt>
      <trkpt lat="43.43246" lon="6.00023">
        <ele>376.79998779297</ele>
        <time>2012-12-08T14:41:12Z</time>
      </trkpt>
      <trkpt lat="43.43245" lon="6.00023">
        <ele>376.79998779297</ele>
        <time>2012-12-08T14:41:23Z</time>
      </trkpt>
      <trkpt lat="43.43243" lon="6.00023">
        <ele>376.79998779297</ele>
        <time>2012-12-08T14:41:26Z</time>
      </trkpt>
      <trkpt lat="43.43242" lon="6.00023">
        <ele>378</ele>
        <time>2012-12-08T14:41:30Z</time>
      </trkpt>
      <trkpt lat="43.43241" lon="6.00024">
        <ele>379</ele>
        <time>2012-12-08T14:41:42Z</time>
      </trkpt>
      <trkpt lat="43.43234" lon="6.00024">
        <ele>381.79998779297</ele>
        <time>2012-12-08T14:42:07Z</time>
      </trkpt>
      <trkpt lat="43.43225" lon="6.00025">
        <ele>383.39999389648</ele>
        <time>2012-12-08T14:42:17Z</time>
      </trkpt>
      <trkpt lat="43.43214" lon="6.00023">
        <ele>386.79998779297</ele>
        <time>2012-12-08T14:42:36Z</time>
      </trkpt>
      <trkpt lat="43.43212" lon="6.00021">
        <ele>389.39999389648</ele>
        <time>2012-12-08T14:42:48Z</time>
      </trkpt>
      <trkpt lat="43.43184" lon="6.00013">
        <ele>396.39999389648</ele>
        <time>2012-12-08T14:43:42Z</time>
      </trkpt>
      <trkpt lat="43.4318" lon="6.00013">
        <ele>398</ele>
        <time>2012-12-08T14:43:57Z</time>
      </trkpt>
      <trkpt lat="43.43157" lon="6.0001">
        <ele>398.79998779297</ele>
        <time>2012-12-08T14:44:15Z</time>
      </trkpt>
      <trkpt lat="43.4313" lon="6.00008">
        <ele>402.20001220703</ele>
        <time>2012-12-08T14:44:36Z</time>
      </trkpt>
      <trkpt lat="43.43127" lon="6.00002">
        <ele>402.60000610352</ele>
        <time>2012-12-08T14:44:40Z</time>
      </trkpt>
      <trkpt lat="43.43126" lon="6">
        <ele>404</ele>
        <time>2012-12-08T14:44:43Z</time>
      </trkpt>
      <trkpt lat="43.43124" lon="6.00002">
        <ele>404.39999389648</ele>
        <time>2012-12-08T14:44:55Z</time>
      </trkpt>
      <trkpt lat="43.43114" lon="6.00011">
        <ele>404.39999389648</ele>
        <time>2012-12-08T14:45:07Z</time>
      </trkpt>
      <trkpt lat="43.43098" lon="6.0001">
        <ele>404.39999389648</ele>
        <time>2012-12-08T14:45:19Z</time>
      </trkpt>
      <trkpt lat="43.43093" lon="6.00011">
        <ele>405.39999389648</ele>
        <time>2012-12-08T14:45:23Z</time>
      </trkpt>
      <trkpt lat="43.43087" lon="6.00019">
        <ele>407</ele>
        <time>2012-12-08T14:45:30Z</time>
      </trkpt>
      <trkpt lat="43.43085" lon="6.0002">
        <ele>407.39999389648</ele>
        <time>2012-12-08T14:45:32Z</time>
      </trkpt>
      <trkpt lat="43.43085" lon="6.0002">
        <ele>409</ele>
        <time>2012-12-08T14:45:36Z</time>
      </trkpt>
      <trkpt lat="43.43081" lon="6.00023">
        <ele>409</ele>
        <time>2012-12-08T14:45:47Z</time>
      </trkpt>
      <trkpt lat="43.43071" lon="6.00025">
        <ele>409</ele>
        <time>2012-12-08T14:45:54Z</time>
      </trkpt>
      <trkpt lat="43.43052" lon="6.00041">
        <ele>411.20001220703</ele>
        <time>2012-12-08T14:46:13Z</time>
      </trkpt>
      <trkpt lat="43.43051" lon="6.00042">
        <ele>411.20001220703</ele>
        <time>2012-12-08T14:46:30Z</time>
      </trkpt>
      <trkpt lat="43.4305" lon="6.00042">
        <ele>411.20001220703</ele>
        <time>2012-12-08T14:46:56Z</time>
      </trkpt>
      <trkpt lat="43.43053" lon="6.00117">
        <ele>413.20001220703</ele>
        <time>2012-12-08T14:48:34Z</time>
      </trkpt>
      <trkpt lat="43.43053" lon="6.00167">
        <ele>412</ele>
        <time>2012-12-08T14:48:46Z</time>
      </trkpt>
      <trkpt lat="43.43042" lon="6.00179">
        <ele>411</ele>
        <time>2012-12-08T14:48:51Z</time>
      </trkpt>
      <trkpt lat="43.43017" lon="6.0019">
        <ele>411</ele>
        <time>2012-12-08T14:49:02Z</time>
      </trkpt>
      <trkpt lat="43.43003" lon="6.00202">
        <ele>411</ele>
        <time>2012-12-08T14:49:09Z</time>
      </trkpt>
      <trkpt lat="43.42992" lon="6.00215">
        <ele>411</ele>
        <time>2012-12-08T14:49:16Z</time>
      </trkpt>
      <trkpt lat="43.42988" lon="6.00227">
        <ele>413.60000610352</ele>
        <time>2012-12-08T14:49:21Z</time>
      </trkpt>
      <trkpt lat="43.4297" lon="6.00284">
        <ele>418.60000610352</ele>
        <time>2012-12-08T14:49:48Z</time>
      </trkpt>
      <trkpt lat="43.42969" lon="6.00324">
        <ele>422</ele>
        <time>2012-12-08T14:50:09Z</time>
      </trkpt>
      <trkpt lat="43.42964" lon="6.00339">
        <ele>424.20001220703</ele>
        <time>2012-12-08T14:50:18Z</time>
      </trkpt>
      <trkpt lat="43.42958" lon="6.00352">
        <ele>424.60000610352</ele>
        <time>2012-12-08T14:50:27Z</time>
      </trkpt>
      <trkpt lat="43.42948" lon="6.0036">
        <ele>426.39999389648</ele>
        <time>2012-12-08T14:50:35Z</time>
      </trkpt>
      <trkpt lat="43.42911" lon="6.00395">
        <ele>433.39999389648</ele>
        <time>2012-12-08T14:51:07Z</time>
      </trkpt>
      <trkpt lat="43.4291" lon="6.00396">
        <ele>433.79998779297</ele>
        <time>2012-12-08T14:51:08Z</time>
      </trkpt>
      <trkpt lat="43.42912" lon="6.00419">
        <ele>435.20001220703</ele>
        <time>2012-12-08T14:51:16Z</time>
      </trkpt>
      <trkpt lat="43.4291" lon="6.00435">
        <ele>435.20001220703</ele>
        <time>2012-12-08T14:51:20Z</time>
      </trkpt>
      <trkpt lat="43.429" lon="6.00462">
        <ele>435.39999389648</ele>
        <time>2012-12-08T14:51:32Z</time>
      </trkpt>
      <trkpt lat="43.42894" lon="6.00481">
        <ele>435.39999389648</ele>
        <time>2012-12-08T14:51:38Z</time>
      </trkpt>
      <trkpt lat="43.42881" lon="6.00498">
        <ele>435.39999389648</ele>
        <time>2012-12-08T14:51:46Z</time>
      </trkpt>
      <trkpt lat="43.42879" lon="6.00507">
        <ele>434</ele>
        <time>2012-12-08T14:51:49Z</time>
      </trkpt>
      <trkpt lat="43.42879" lon="6.00549">
        <ele>431</ele>
        <time>2012-12-08T14:52:00Z</time>
      </trkpt>
      <trkpt lat="43.42879" lon="6.00553">
        <ele>430.60000610352</ele>
        <time>2012-12-08T14:52:01Z</time>
      </trkpt>
      <trkpt lat="43.42876" lon="6.00577">
        <ele>427.60000610352</ele>
        <time>2012-12-08T14:52:07Z</time>
      </trkpt>
      <trkpt lat="43.42875" lon="6.00595">
        <ele>425.20001220703</ele>
        <time>2012-12-08T14:52:12Z</time>
      </trkpt>
      <trkpt lat="43.42871" lon="6.00613">
        <ele>422.60000610352</ele>
        <time>2012-12-08T14:52:17Z</time>
      </trkpt>
      <trkpt lat="43.42864" lon="6.00667">
        <ele>415.79998779297</ele>
        <time>2012-12-08T14:52:27Z</time>
      </trkpt>
      <trkpt lat="43.42845" lon="6.00745">
        <ele>406.79998779297</ele>
        <time>2012-12-08T14:52:38Z</time>
      </trkpt>
      <trkpt lat="43.42841" lon="6.00765">
        <ele>405.60000610352</ele>
        <time>2012-12-08T14:52:41Z</time>
      </trkpt>
      <trkpt lat="43.42826" lon="6.00781">
        <ele>405.60000610352</ele>
        <time>2012-12-08T14:52:46Z</time>
      </trkpt>
      <trkpt lat="43.42817" lon="6.00783">
        <ele>405.60000610352</ele>
        <time>2012-12-08T14:52:50Z</time>
      </trkpt>
      <trkpt lat="43.42806" lon="6.00779">
        <ele>405.60000610352</ele>
        <time>2012-12-08T14:52:57Z</time>
      </trkpt>
      <trkpt lat="43.42791" lon="6.00776">
        <ele>406.39999389648</ele>
        <time>2012-12-08T14:53:07Z</time>
      </trkpt>
      <trkpt lat="43.42781" lon="6.00773">
        <ele>409</ele>
        <time>2012-12-08T14:53:15Z</time>
      </trkpt>
      <trkpt lat="43.42768" lon="6.00766">
        <ele>412</ele>
        <time>2012-12-08T14:53:27Z</time>
      </trkpt>
      <trkpt lat="43.42748" lon="6.00751">
        <ele>415.79998779297</ele>
        <time>2012-12-08T14:53:46Z</time>
      </trkpt>
      <trkpt lat="43.42747" lon="6.00751">
        <ele>416.20001220703</ele>
        <time>2012-12-08T14:53:47Z</time>
      </trkpt>
      <trkpt lat="43.42713" lon="6.00754">
        <ele>416.60000610352</ele>
        <time>2012-12-08T14:54:10Z</time>
      </trkpt>
      <trkpt lat="43.42693" lon="6.00785">
        <ele>418.39999389648</ele>
        <time>2012-12-08T14:54:25Z</time>
      </trkpt>
      <trkpt lat="43.42684" lon="6.0079">
        <ele>418.39999389648</ele>
        <time>2012-12-08T14:54:30Z</time>
      </trkpt>
      <trkpt lat="43.42664" lon="6.00814">
        <ele>418.39999389648</ele>
        <time>2012-12-08T14:54:41Z</time>
      </trkpt>
      <trkpt lat="43.42649" lon="6.00804">
        <ele>418.39999389648</ele>
        <time>2012-12-08T14:54:49Z</time>
      </trkpt>
      <trkpt lat="43.42646" lon="6.00803">
        <ele>418.39999389648</ele>
        <time>2012-12-08T14:54:53Z</time>
      </trkpt>
      <trkpt lat="43.42646" lon="6.00804">
        <ele>416.20001220703</ele>
        <time>2012-12-08T14:56:21Z</time>
      </trkpt>
      <trkpt lat="43.42645" lon="6.00805">
        <ele>416.20001220703</ele>
        <time>2012-12-08T14:56:22Z</time>
      </trkpt>
      <trkpt lat="43.42643" lon="6.00813">
        <ele>416.20001220703</ele>
        <time>2012-12-08T14:56:26Z</time>
      </trkpt>
      <trkpt lat="43.42641" lon="6.00826">
        <ele>416.20001220703</ele>
        <time>2012-12-08T14:56:30Z</time>
      </trkpt>
      <trkpt lat="43.42627" lon="6.00838">
        <ele>416.20001220703</ele>
        <time>2012-12-08T14:56:36Z</time>
      </trkpt>
      <trkpt lat="43.4262" lon="6.00853">
        <ele>416.20001220703</ele>
        <time>2012-12-08T14:56:40Z</time>
      </trkpt>
      <trkpt lat="43.42613" lon="6.00919">
        <ele>418.39999389648</ele>
        <time>2012-12-08T14:56:56Z</time>
      </trkpt>
      <trkpt lat="43.42606" lon="6.00948">
        <ele>418.39999389648</ele>
        <time>2012-12-08T14:57:03Z</time>
      </trkpt>
      <trkpt lat="43.42599" lon="6.00987">
        <ele>418.39999389648</ele>
        <time>2012-12-08T14:57:12Z</time>
      </trkpt>
      <trkpt lat="43.426" lon="6.01051">
        <ele>416.39999389648</ele>
        <time>2012-12-08T14:57:22Z</time>
      </trkpt>
      <trkpt lat="43.42599" lon="6.01077">
        <ele>416.39999389648</ele>
        <time>2012-12-08T14:57:26Z</time>
      </trkpt>
      <trkpt lat="43.42582" lon="6.01085">
        <ele>416.39999389648</ele>
        <time>2012-12-08T14:57:32Z</time>
      </trkpt>
      <trkpt lat="43.42587" lon="6.01119">
        <ele>414.60000610352</ele>
        <time>2012-12-08T14:57:39Z</time>
      </trkpt>
      <trkpt lat="43.42587" lon="6.01125">
        <ele>414.20001220703</ele>
        <time>2012-12-08T14:57:40Z</time>
      </trkpt>
      <trkpt lat="43.42583" lon="6.01132">
        <ele>414.20001220703</ele>
        <time>2012-12-08T14:57:42Z</time>
      </trkpt>
      <trkpt lat="43.42565" lon="6.01135">
        <ele>413.39999389648</ele>
        <time>2012-12-08T14:57:47Z</time>
      </trkpt>
      <trkpt lat="43.42546" lon="6.01134">
        <ele>411</ele>
        <time>2012-12-08T14:57:51Z</time>
      </trkpt>
      <trkpt lat="43.42538" lon="6.01139">
        <ele>409</ele>
        <time>2012-12-08T14:57:54Z</time>
      </trkpt>
      <trkpt lat="43.42538" lon="6.01169">
        <ele>406.39999389648</ele>
        <time>2012-12-08T14:58:01Z</time>
      </trkpt>
      <trkpt lat="43.4253" lon="6.01198">
        <ele>404.60000610352</ele>
        <time>2012-12-08T14:58:07Z</time>
      </trkpt>
      <trkpt lat="43.42517" lon="6.01211">
        <ele>402.60000610352</ele>
        <time>2012-12-08T14:58:11Z</time>
      </trkpt>
      <trkpt lat="43.42494" lon="6.01226">
        <ele>396.20001220703</ele>
        <time>2012-12-08T14:58:20Z</time>
      </trkpt>
      <trkpt lat="43.4249" lon="6.01237">
        <ele>394.39999389648</ele>
        <time>2012-12-08T14:58:23Z</time>
      </trkpt>
      <trkpt lat="43.42479" lon="6.01262">
        <ele>392.60000610352</ele>
        <time>2012-12-08T14:58:29Z</time>
      </trkpt>
      <trkpt lat="43.4248" lon="6.01275">
        <ele>392.60000610352</ele>
        <time>2012-12-08T14:58:34Z</time>
      </trkpt>
      <trkpt lat="43.42486" lon="6.01306">
        <ele>395</ele>
        <time>2012-12-08T14:58:47Z</time>
      </trkpt>
      <trkpt lat="43.42495" lon="6.01364">
        <ele>401.79998779297</ele>
        <time>2012-12-08T14:59:16Z</time>
      </trkpt>
      <trkpt lat="43.42493" lon="6.01393">
        <ele>405.60000610352</ele>
        <time>2012-12-08T14:59:33Z</time>
      </trkpt>
      <trkpt lat="43.42488" lon="6.01452">
        <ele>408.39999389648</ele>
        <time>2012-12-08T15:00:00Z</time>
      </trkpt>
      <trkpt lat="43.42485" lon="6.01498">
        <ele>411</ele>
        <time>2012-12-08T15:00:17Z</time>
      </trkpt>
      <trkpt lat="43.42487" lon="6.01513">
        <ele>411</ele>
        <time>2012-12-08T15:00:23Z</time>
      </trkpt>
      <trkpt lat="43.42499" lon="6.01558">
        <ele>415.20001220703</ele>
        <time>2012-12-08T15:00:41Z</time>
      </trkpt>
      <trkpt lat="43.42505" lon="6.016">
        <ele>417.60000610352</ele>
        <time>2012-12-08T15:00:51Z</time>
      </trkpt>
      <trkpt lat="43.42506" lon="6.01609">
        <ele>417.60000610352</ele>
        <time>2012-12-08T15:00:53Z</time>
      </trkpt>
      <trkpt lat="43.42501" lon="6.01624">
        <ele>417.60000610352</ele>
        <time>2012-12-08T15:00:58Z</time>
      </trkpt>
      <trkpt lat="43.4249" lon="6.01642">
        <ele>417.60000610352</ele>
        <time>2012-12-08T15:01:05Z</time>
      </trkpt>
      <trkpt lat="43.42477" lon="6.0166">
        <ele>417.60000610352</ele>
        <time>2012-12-08T15:01:11Z</time>
      </trkpt>
      <trkpt lat="43.42451" lon="6.01732">
        <ele>415.60000610352</ele>
        <time>2012-12-08T15:01:30Z</time>
      </trkpt>
      <trkpt lat="43.4245" lon="6.01736">
        <ele>415.60000610352</ele>
        <time>2012-12-08T15:01:31Z</time>
      </trkpt>
      <trkpt lat="43.4244" lon="6.01799">
        <ele>415.60000610352</ele>
        <time>2012-12-08T15:01:45Z</time>
      </trkpt>
      <trkpt lat="43.42423" lon="6.01897">
        <ele>420</ele>
        <time>2012-12-08T15:02:12Z</time>
      </trkpt>
      <trkpt lat="43.42411" lon="6.01952">
        <ele>420</ele>
        <time>2012-12-08T15:02:25Z</time>
      </trkpt>
      <trkpt lat="43.42411" lon="6.01965">
        <ele>420</ele>
        <time>2012-12-08T15:02:29Z</time>
      </trkpt>
      <trkpt lat="43.42412" lon="6.01967">
        <ele>420</ele>
        <time>2012-12-08T15:02:30Z</time>
      </trkpt>
      <trkpt lat="43.42416" lon="6.01979">
        <ele>420</ele>
        <time>2012-12-08T15:02:37Z</time>
      </trkpt>
      <trkpt lat="43.42422" lon="6.01987">
        <ele>420</ele>
        <time>2012-12-08T15:02:43Z</time>
      </trkpt>
      <trkpt lat="43.42426" lon="6.01992">
        <ele>422.20001220703</ele>
        <time>2012-12-08T15:02:47Z</time>
      </trkpt>
      <trkpt lat="43.42426" lon="6.01991">
        <ele>422.20001220703</ele>
        <time>2012-12-08T15:02:49Z</time>
      </trkpt>
      <trkpt lat="43.42426" lon="6.01991">
        <ele>424.60000610352</ele>
        <time>2012-12-08T15:03:08Z</time>
      </trkpt>
      <trkpt lat="43.4243" lon="6.0199">
        <ele>423</ele>
        <time>2012-12-08T15:03:21Z</time>
      </trkpt>
      <trkpt lat="43.4243" lon="6.0199">
        <ele>423</ele>
        <time>2012-12-08T15:03:26Z</time>
      </trkpt>
      <trkpt lat="43.4243" lon="6.0199">
        <ele>423</ele>
        <time>2012-12-08T15:03:36Z</time>
      </trkpt>
      <trkpt lat="43.42435" lon="6.01994">
        <ele>424.20001220703</ele>
        <time>2012-12-08T15:03:41Z</time>
      </trkpt>
      <trkpt lat="43.42441" lon="6.01994">
        <ele>425.20001220703</ele>
        <time>2012-12-08T15:03:46Z</time>
      </trkpt>
      <trkpt lat="43.42469" lon="6.01998">
        <ele>431.79998779297</ele>
        <time>2012-12-08T15:04:13Z</time>
      </trkpt>
      <trkpt lat="43.42473" lon="6.02002">
        <ele>432.39999389648</ele>
        <time>2012-12-08T15:04:17Z</time>
      </trkpt>
      <trkpt lat="43.4248" lon="6.02014">
        <ele>434.39999389648</ele>
        <time>2012-12-08T15:04:26Z</time>
      </trkpt>
      <trkpt lat="43.4248" lon="6.02015">
        <ele>434.79998779297</ele>
        <time>2012-12-08T15:04:27Z</time>
      </trkpt>
      <trkpt lat="43.42472" lon="6.02292">
        <ele>421.79998779297</ele>
        <time>2012-12-08T15:05:07Z</time>
      </trkpt>
      <trkpt lat="43.42471" lon="6.02301">
        <ele>421.39999389648</ele>
        <time>2012-12-08T15:05:08Z</time>
      </trkpt>
      <trkpt lat="43.42463" lon="6.02393">
        <ele>415.79998779297</ele>
        <time>2012-12-08T15:05:17Z</time>
      </trkpt>
      <trkpt lat="43.42457" lon="6.02409">
        <ele>414.20001220703</ele>
        <time>2012-12-08T15:05:19Z</time>
      </trkpt>
      <trkpt lat="43.42442" lon="6.02437">
        <ele>413.39999389648</ele>
        <time>2012-12-08T15:05:23Z</time>
      </trkpt>
      <trkpt lat="43.4243" lon="6.02496">
        <ele>413.39999389648</ele>
        <time>2012-12-08T15:05:31Z</time>
      </trkpt>
      <trkpt lat="43.42421" lon="6.02566">
        <ele>412.20001220703</ele>
        <time>2012-12-08T15:05:40Z</time>
      </trkpt>
      <trkpt lat="43.42421" lon="6.02617">
        <ele>410.60000610352</ele>
        <time>2012-12-08T15:05:46Z</time>
      </trkpt>
      <trkpt lat="43.42423" lon="6.02623">
        <ele>410.20001220703</ele>
        <time>2012-12-08T15:05:47Z</time>
      </trkpt>
      <trkpt lat="43.42425" lon="6.02627">
        <ele>409.79998779297</ele>
        <time>2012-12-08T15:05:48Z</time>
      </trkpt>
      <trkpt lat="43.42433" lon="6.02631">
        <ele>409.39999389648</ele>
        <time>2012-12-08T15:05:51Z</time>
      </trkpt>
      <trkpt lat="43.42439" lon="6.02637">
        <ele>409.39999389648</ele>
        <time>2012-12-08T15:06:03Z</time>
      </trkpt>
      <trkpt lat="43.42439" lon="6.02639">
        <ele>409.39999389648</ele>
        <time>2012-12-08T15:06:04Z</time>
      </trkpt>
      <trkpt lat="43.42443" lon="6.02676">
        <ele>409.39999389648</ele>
        <time>2012-12-08T15:06:16Z</time>
      </trkpt>
      <trkpt lat="43.42441" lon="6.02738">
        <ele>410.20001220703</ele>
        <time>2012-12-08T15:06:32Z</time>
      </trkpt>
      <trkpt lat="43.42441" lon="6.02742">
        <ele>410.60000610352</ele>
        <time>2012-12-08T15:06:33Z</time>
      </trkpt>
      <trkpt lat="43.42431" lon="6.02773">
        <ele>411.39999389648</ele>
        <time>2012-12-08T15:06:42Z</time>
      </trkpt>
      <trkpt lat="43.42431" lon="6.02798">
        <ele>413.60000610352</ele>
        <time>2012-12-08T15:06:49Z</time>
      </trkpt>
      <trkpt lat="43.42392" lon="6.02893">
        <ele>417.79998779297</ele>
        <time>2012-12-08T15:07:17Z</time>
      </trkpt>
      <trkpt lat="43.42383" lon="6.02923">
        <ele>418.20001220703</ele>
        <time>2012-12-08T15:07:24Z</time>
      </trkpt>
      <trkpt lat="43.42378" lon="6.02951">
        <ele>420</ele>
        <time>2012-12-08T15:07:30Z</time>
      </trkpt>
      <trkpt lat="43.42376" lon="6.02993">
        <ele>417.79998779297</ele>
        <time>2012-12-08T15:07:37Z</time>
      </trkpt>
      <trkpt lat="43.42382" lon="6.03023">
        <ele>416.79998779297</ele>
        <time>2012-12-08T15:07:41Z</time>
      </trkpt>
      <trkpt lat="43.42384" lon="6.03048">
        <ele>415.20001220703</ele>
        <time>2012-12-08T15:07:44Z</time>
      </trkpt>
      <trkpt lat="43.42373" lon="6.03141">
        <ele>409.20001220703</ele>
        <time>2012-12-08T15:07:53Z</time>
      </trkpt>
      <trkpt lat="43.42369" lon="6.03219">
        <ele>404.60000610352</ele>
        <time>2012-12-08T15:08:02Z</time>
      </trkpt>
      <trkpt lat="43.42367" lon="6.03249">
        <ele>403.60000610352</ele>
        <time>2012-12-08T15:08:06Z</time>
      </trkpt>
      <trkpt lat="43.42377" lon="6.03301">
        <ele>403.60000610352</ele>
        <time>2012-12-08T15:08:14Z</time>
      </trkpt>
      <trkpt lat="43.42377" lon="6.03329">
        <ele>403.60000610352</ele>
        <time>2012-12-08T15:08:19Z</time>
      </trkpt>
      <trkpt lat="43.4238" lon="6.03332">
        <ele>403.60000610352</ele>
        <time>2012-12-08T15:08:20Z</time>
      </trkpt>
      <trkpt lat="43.42387" lon="6.03332">
        <ele>403.60000610352</ele>
        <time>2012-12-08T15:08:22Z</time>
      </trkpt>
      <trkpt lat="43.42396" lon="6.03327">
        <ele>403.60000610352</ele>
        <time>2012-12-08T15:08:24Z</time>
      </trkpt>
      <trkpt lat="43.42435" lon="6.03315">
        <ele>398.39999389648</ele>
        <time>2012-12-08T15:08:33Z</time>
      </trkpt>
      <trkpt lat="43.42443" lon="6.03316">
        <ele>396.60000610352</ele>
        <time>2012-12-08T15:08:35Z</time>
      </trkpt>
      <trkpt lat="43.42461" lon="6.03314">
        <ele>391.60000610352</ele>
        <time>2012-12-08T15:08:40Z</time>
      </trkpt>
      <trkpt lat="43.42467" lon="6.03308">
        <ele>389.60000610352</ele>
        <time>2012-12-08T15:08:42Z</time>
      </trkpt>
      <trkpt lat="43.42507" lon="6.03255">
        <ele>380.20001220703</ele>
        <time>2012-12-08T15:08:56Z</time>
      </trkpt>
      <trkpt lat="43.42525" lon="6.03256">
        <ele>378.60000610352</ele>
        <time>2012-12-08T15:09:01Z</time>
      </trkpt>
      <trkpt lat="43.42532" lon="6.03263">
        <ele>377.20001220703</ele>
        <time>2012-12-08T15:09:04Z</time>
      </trkpt>
      <trkpt lat="43.42535" lon="6.03274">
        <ele>376.79998779297</ele>
        <time>2012-12-08T15:09:08Z</time>
      </trkpt>
      <trkpt lat="43.42537" lon="6.03283">
        <ele>376.79998779297</ele>
        <time>2012-12-08T15:09:11Z</time>
      </trkpt>
      <trkpt lat="43.42538" lon="6.03303">
        <ele>376.79998779297</ele>
        <time>2012-12-08T15:09:16Z</time>
      </trkpt>
      <trkpt lat="43.42538" lon="6.03336">
        <ele>379.20001220703</ele>
        <time>2012-12-08T15:09:26Z</time>
      </trkpt>
      <trkpt lat="43.42546" lon="6.03373">
        <ele>381.20001220703</ele>
        <time>2012-12-08T15:09:39Z</time>
      </trkpt>
      <trkpt lat="43.42545" lon="6.0339">
        <ele>381.60000610352</ele>
        <time>2012-12-08T15:09:45Z</time>
      </trkpt>
      <trkpt lat="43.42546" lon="6.03393">
        <ele>382</ele>
        <time>2012-12-08T15:09:46Z</time>
      </trkpt>
      <trkpt lat="43.42563" lon="6.03403">
        <ele>383.20001220703</ele>
        <time>2012-12-08T15:09:56Z</time>
      </trkpt>
      <trkpt lat="43.4259" lon="6.03441">
        <ele>383.20001220703</ele>
        <time>2012-12-08T15:10:15Z</time>
      </trkpt>
      <trkpt lat="43.42602" lon="6.03453">
        <ele>383.20001220703</ele>
        <time>2012-12-08T15:10:22Z</time>
      </trkpt>
      <trkpt lat="43.42632" lon="6.03475">
        <ele>388.20001220703</ele>
        <time>2012-12-08T15:10:44Z</time>
      </trkpt>
      <trkpt lat="43.42634" lon="6.03478">
        <ele>389.39999389648</ele>
        <time>2012-12-08T15:10:47Z</time>
      </trkpt>
      <trkpt lat="43.42643" lon="6.03499">
        <ele>390</ele>
        <time>2012-12-08T15:11:00Z</time>
      </trkpt>
      <trkpt lat="43.42659" lon="6.03592">
        <ele>390</ele>
        <time>2012-12-08T15:11:26Z</time>
      </trkpt>
      <trkpt lat="43.42664" lon="6.03604">
        <ele>390</ele>
        <time>2012-12-08T15:11:30Z</time>
      </trkpt>
      <trkpt lat="43.42675" lon="6.03618">
        <ele>390</ele>
        <time>2012-12-08T15:11:35Z</time>
      </trkpt>
      <trkpt lat="43.4268" lon="6.03634">
        <ele>390</ele>
        <time>2012-12-08T15:11:40Z</time>
      </trkpt>
      <trkpt lat="43.42681" lon="6.03697">
        <ele>389.39999389648</ele>
        <time>2012-12-08T15:11:54Z</time>
      </trkpt>
      <trkpt lat="43.42682" lon="6.03731">
        <ele>386.60000610352</ele>
        <time>2012-12-08T15:12:01Z</time>
      </trkpt>
      <trkpt lat="43.42677" lon="6.03783">
        <ele>380.39999389648</ele>
        <time>2012-12-08T15:12:14Z</time>
      </trkpt>
      <trkpt lat="43.42672" lon="6.03806">
        <ele>377</ele>
        <time>2012-12-08T15:12:21Z</time>
      </trkpt>
      <trkpt lat="43.42682" lon="6.03819">
        <ele>375</ele>
        <time>2012-12-08T15:12:25Z</time>
      </trkpt>
      <trkpt lat="43.42683" lon="6.03824">
        <ele>374.39999389648</ele>
        <time>2012-12-08T15:12:26Z</time>
      </trkpt>
      <trkpt lat="43.42686" lon="6.03867">
        <ele>369.39999389648</ele>
        <time>2012-12-08T15:12:33Z</time>
      </trkpt>
      <trkpt lat="43.42683" lon="6.0389">
        <ele>366.20001220703</ele>
        <time>2012-12-08T15:12:37Z</time>
      </trkpt>
      <trkpt lat="43.42685" lon="6.03903">
        <ele>365.20001220703</ele>
        <time>2012-12-08T15:12:39Z</time>
      </trkpt>
      <trkpt lat="43.42692" lon="6.03915">
        <ele>364</ele>
        <time>2012-12-08T15:12:42Z</time>
      </trkpt>
      <trkpt lat="43.42689" lon="6.03924">
        <ele>363</ele>
        <time>2012-12-08T15:12:45Z</time>
      </trkpt>
      <trkpt lat="43.42693" lon="6.03938">
        <ele>361.79998779297</ele>
        <time>2012-12-08T15:12:48Z</time>
      </trkpt>
      <trkpt lat="43.42705" lon="6.0395">
        <ele>360.39999389648</ele>
        <time>2012-12-08T15:12:51Z</time>
      </trkpt>
      <trkpt lat="43.42721" lon="6.03951">
        <ele>359.20001220703</ele>
        <time>2012-12-08T15:12:55Z</time>
      </trkpt>
      <trkpt lat="43.42728" lon="6.03961">
        <ele>359.20001220703</ele>
        <time>2012-12-08T15:12:58Z</time>
      </trkpt>
      <trkpt lat="43.42718" lon="6.04006">
        <ele>357</ele>
        <time>2012-12-08T15:13:06Z</time>
      </trkpt>
      <trkpt lat="43.42717" lon="6.0401">
        <ele>357</ele>
        <time>2012-12-08T15:13:07Z</time>
      </trkpt>
      <trkpt lat="43.42703" lon="6.0403">
        <ele>357</ele>
        <time>2012-12-08T15:13:11Z</time>
      </trkpt>
      <trkpt lat="43.42695" lon="6.04055">
        <ele>356.20001220703</ele>
        <time>2012-12-08T15:13:15Z</time>
      </trkpt>
      <trkpt lat="43.42692" lon="6.04067">
        <ele>355.39999389648</ele>
        <time>2012-12-08T15:13:17Z</time>
      </trkpt>
      <trkpt lat="43.42694" lon="6.04087">
        <ele>355</ele>
        <time>2012-12-08T15:13:20Z</time>
      </trkpt>
      <trkpt lat="43.42692" lon="6.04108">
        <ele>355</ele>
        <time>2012-12-08T15:13:24Z</time>
      </trkpt>
      <trkpt lat="43.42663" lon="6.04128">
        <ele>355</ele>
        <time>2012-12-08T15:13:30Z</time>
      </trkpt>
      <trkpt lat="43.42649" lon="6.04167">
        <ele>352.79998779297</ele>
        <time>2012-12-08T15:13:36Z</time>
      </trkpt>
      <trkpt lat="43.42638" lon="6.04185">
        <ele>351.39999389648</ele>
        <time>2012-12-08T15:13:39Z</time>
      </trkpt>
      <trkpt lat="43.42635" lon="6.0419">
        <ele>350.79998779297</ele>
        <time>2012-12-08T15:13:40Z</time>
      </trkpt>
      <trkpt lat="43.42639" lon="6.0424">
        <ele>348.20001220703</ele>
        <time>2012-12-08T15:13:47Z</time>
      </trkpt>
      <trkpt lat="43.42649" lon="6.04281">
        <ele>346.60000610352</ele>
        <time>2012-12-08T15:13:53Z</time>
      </trkpt>
      <trkpt lat="43.42647" lon="6.04287">
        <ele>345.39999389648</ele>
        <time>2012-12-08T15:13:56Z</time>
      </trkpt>
      <trkpt lat="43.42646" lon="6.04288">
        <ele>344.20001220703</ele>
        <time>2012-12-08T15:14:09Z</time>
      </trkpt>
      <trkpt lat="43.42643" lon="6.04293">
        <ele>344.20001220703</ele>
        <time>2012-12-08T15:14:16Z</time>
      </trkpt>
      <trkpt lat="43.42643" lon="6.04294">
        <ele>344.20001220703</ele>
        <time>2012-12-08T15:14:27Z</time>
      </trkpt>
      <trkpt lat="43.42639" lon="6.04293">
        <ele>344.20001220703</ele>
        <time>2012-12-08T15:14:41Z</time>
      </trkpt>
      <trkpt lat="43.42621" lon="6.04306">
        <ele>348.20001220703</ele>
        <time>2012-12-08T15:15:03Z</time>
      </trkpt>
      <trkpt lat="43.42619" lon="6.04307">
        <ele>348.20001220703</ele>
        <time>2012-12-08T15:15:07Z</time>
      </trkpt>
      <trkpt lat="43.42609" lon="6.04308">
        <ele>350</ele>
        <time>2012-12-08T15:15:25Z</time>
      </trkpt>
      <trkpt lat="43.42604" lon="6.04308">
        <ele>352</ele>
        <time>2012-12-08T15:15:32Z</time>
      </trkpt>
      <trkpt lat="43.42579" lon="6.04319">
        <ele>356.79998779297</ele>
        <time>2012-12-08T15:16:08Z</time>
      </trkpt>
      <trkpt lat="43.42575" lon="6.04321">
        <ele>356.79998779297</ele>
        <time>2012-12-08T15:16:20Z</time>
      </trkpt>
      <trkpt lat="43.42559" lon="6.04329">
        <ele>359.60000610352</ele>
        <time>2012-12-08T15:16:37Z</time>
      </trkpt>
      <trkpt lat="43.42553" lon="6.04331">
        <ele>361.20001220703</ele>
        <time>2012-12-08T15:16:42Z</time>
      </trkpt>
      <trkpt lat="43.42529" lon="6.04339">
        <ele>366</ele>
        <time>2012-12-08T15:17:10Z</time>
      </trkpt>
      <trkpt lat="43.42521" lon="6.0434">
        <ele>366</ele>
        <time>2012-12-08T15:17:17Z</time>
      </trkpt>
      <trkpt lat="43.42488" lon="6.04324">
        <ele>366.39999389648</ele>
        <time>2012-12-08T15:17:46Z</time>
      </trkpt>
      <trkpt lat="43.42477" lon="6.04319">
        <ele>368.20001220703</ele>
        <time>2012-12-08T15:17:56Z</time>
      </trkpt>
      <trkpt lat="43.42475" lon="6.04317">
        <ele>369</ele>
        <time>2012-12-08T15:18:03Z</time>
      </trkpt>
      <trkpt lat="43.42469" lon="6.04315">
        <ele>370.20001220703</ele>
        <time>2012-12-08T15:18:08Z</time>
      </trkpt>
      <trkpt lat="43.42468" lon="6.04316">
        <ele>370.20001220703</ele>
        <time>2012-12-08T15:18:11Z</time>
      </trkpt>
      <trkpt lat="43.42468" lon="6.04316">
        <ele>370.20001220703</ele>
        <time>2012-12-08T15:18:27Z</time>
      </trkpt>
      <trkpt lat="43.42463" lon="6.04354">
        <ele>372.39999389648</ele>
        <time>2012-12-08T15:19:07Z</time>
      </trkpt>
      <trkpt lat="43.42464" lon="6.04374">
        <ele>372.39999389648</ele>
        <time>2012-12-08T15:19:17Z</time>
      </trkpt>
      <trkpt lat="43.42464" lon="6.04392">
        <ele>372.39999389648</ele>
        <time>2012-12-08T15:19:24Z</time>
      </trkpt>
      <trkpt lat="43.42456" lon="6.04411">
        <ele>372</ele>
        <time>2012-12-08T15:19:29Z</time>
      </trkpt>
      <trkpt lat="43.42454" lon="6.04427">
        <ele>370</ele>
        <time>2012-12-08T15:19:33Z</time>
      </trkpt>
      <trkpt lat="43.4245" lon="6.04443">
        <ele>366.79998779297</ele>
        <time>2012-12-08T15:19:38Z</time>
      </trkpt>
      <trkpt lat="43.42457" lon="6.04454">
        <ele>364.39999389648</ele>
        <time>2012-12-08T15:19:42Z</time>
      </trkpt>
      <trkpt lat="43.4246" lon="6.04464">
        <ele>363.20001220703</ele>
        <time>2012-12-08T15:19:46Z</time>
      </trkpt>
      <trkpt lat="43.4247" lon="6.04469">
        <ele>362.79998779297</ele>
        <time>2012-12-08T15:19:53Z</time>
      </trkpt>
      <trkpt lat="43.42481" lon="6.04503">
        <ele>361</ele>
        <time>2012-12-08T15:20:01Z</time>
      </trkpt>
      <trkpt lat="43.42478" lon="6.0453">
        <ele>358.60000610352</ele>
        <time>2012-12-08T15:20:08Z</time>
      </trkpt>
      <trkpt lat="43.42478" lon="6.0454">
        <ele>356.60000610352</ele>
        <time>2012-12-08T15:20:11Z</time>
      </trkpt>
      <trkpt lat="43.42472" lon="6.04556">
        <ele>353</ele>
        <time>2012-12-08T15:20:17Z</time>
      </trkpt>
      <trkpt lat="43.42472" lon="6.04559">
        <ele>352.39999389648</ele>
        <time>2012-12-08T15:20:18Z</time>
      </trkpt>
      <trkpt lat="43.42474" lon="6.0456">
        <ele>351.39999389648</ele>
        <time>2012-12-08T15:20:20Z</time>
      </trkpt>
      <trkpt lat="43.42475" lon="6.04561">
        <ele>350.20001220703</ele>
        <time>2012-12-08T15:20:24Z</time>
      </trkpt>
      <trkpt lat="43.42475" lon="6.04566">
        <ele>350.20001220703</ele>
        <time>2012-12-08T15:20:26Z</time>
      </trkpt>
      <trkpt lat="43.42472" lon="6.04572">
        <ele>349.79998779297</ele>
        <time>2012-12-08T15:20:29Z</time>
      </trkpt>
      <trkpt lat="43.42466" lon="6.04596">
        <ele>346</ele>
        <time>2012-12-08T15:20:36Z</time>
      </trkpt>
      <trkpt lat="43.42459" lon="6.04607">
        <ele>343.79998779297</ele>
        <time>2012-12-08T15:20:40Z</time>
      </trkpt>
      <trkpt lat="43.42452" lon="6.04615">
        <ele>342.20001220703</ele>
        <time>2012-12-08T15:20:44Z</time>
      </trkpt>
      <trkpt lat="43.42451" lon="6.04624">
        <ele>340.39999389648</ele>
        <time>2012-12-08T15:20:48Z</time>
      </trkpt>
      <trkpt lat="43.42445" lon="6.04657">
        <ele>337</ele>
        <time>2012-12-08T15:20:54Z</time>
      </trkpt>
      <trkpt lat="43.42437" lon="6.0467">
        <ele>334.20001220703</ele>
        <time>2012-12-08T15:20:58Z</time>
      </trkpt>
      <trkpt lat="43.42426" lon="6.04668">
        <ele>332</ele>
        <time>2012-12-08T15:21:04Z</time>
      </trkpt>
      <trkpt lat="43.42419" lon="6.04672">
        <ele>332</ele>
        <time>2012-12-08T15:21:08Z</time>
      </trkpt>
      <trkpt lat="43.4241" lon="6.04681">
        <ele>332</ele>
        <time>2012-12-08T15:21:13Z</time>
      </trkpt>
      <trkpt lat="43.42406" lon="6.04692">
        <ele>332</ele>
        <time>2012-12-08T15:21:18Z</time>
      </trkpt>
      <trkpt lat="43.424" lon="6.04702">
        <ele>332.39999389648</ele>
        <time>2012-12-08T15:21:23Z</time>
      </trkpt>
      <trkpt lat="43.424" lon="6.04711">
        <ele>333.60000610352</ele>
        <time>2012-12-08T15:21:26Z</time>
      </trkpt>
      <trkpt lat="43.42385" lon="6.04721">
        <ele>334</ele>
        <time>2012-12-08T15:21:35Z</time>
      </trkpt>
      <trkpt lat="43.42381" lon="6.04745">
        <ele>336.39999389648</ele>
        <time>2012-12-08T15:21:46Z</time>
      </trkpt>
      <trkpt lat="43.42385" lon="6.04751">
        <ele>336.39999389648</ele>
        <time>2012-12-08T15:21:50Z</time>
      </trkpt>
      <trkpt lat="43.4239" lon="6.04759">
        <ele>336.39999389648</ele>
        <time>2012-12-08T15:21:55Z</time>
      </trkpt>
      <trkpt lat="43.42403" lon="6.04753">
        <ele>336.39999389648</ele>
        <time>2012-12-08T15:22:01Z</time>
      </trkpt>
      <trkpt lat="43.42417" lon="6.04755">
        <ele>334</ele>
        <time>2012-12-08T15:22:07Z</time>
      </trkpt>
      <trkpt lat="43.42432" lon="6.04749">
        <ele>332.60000610352</ele>
        <time>2012-12-08T15:22:14Z</time>
      </trkpt>
      <trkpt lat="43.42432" lon="6.0475">
        <ele>331</ele>
        <time>2012-12-08T15:22:36Z</time>
      </trkpt>
      <trkpt lat="43.42433" lon="6.0475">
        <ele>329.60000610352</ele>
        <time>2012-12-08T15:22:39Z</time>
      </trkpt>
      <trkpt lat="43.42433" lon="6.0475">
        <ele>329.60000610352</ele>
        <time>2012-12-08T15:22:57Z</time>
      </trkpt>
      <trkpt lat="43.42433" lon="6.0475">
        <ele>329.60000610352</ele>
        <time>2012-12-08T15:25:13Z</time>
      </trkpt>
      <trkpt lat="43.42432" lon="6.0475">
        <ele>329.60000610352</ele>
        <time>2012-12-08T15:25:15Z</time>
      </trkpt>
      <trkpt lat="43.42432" lon="6.04763">
        <ele>329.60000610352</ele>
        <time>2012-12-08T15:25:48Z</time>
      </trkpt>
      <trkpt lat="43.42432" lon="6.04765">
        <ele>331.60000610352</ele>
        <time>2012-12-08T15:25:58Z</time>
      </trkpt>
      <trkpt lat="43.42434" lon="6.04786">
        <ele>332</ele>
        <time>2012-12-08T15:26:11Z</time>
      </trkpt>
      <trkpt lat="43.42433" lon="6.04789">
        <ele>332</ele>
        <time>2012-12-08T15:26:13Z</time>
      </trkpt>
      <trkpt lat="43.42429" lon="6.04805">
        <ele>335</ele>
        <time>2012-12-08T15:26:23Z</time>
      </trkpt>
      <trkpt lat="43.42431" lon="6.04811">
        <ele>336.20001220703</ele>
        <time>2012-12-08T15:26:27Z</time>
      </trkpt>
      <trkpt lat="43.42437" lon="6.04816">
        <ele>336.20001220703</ele>
        <time>2012-12-08T15:26:33Z</time>
      </trkpt>
      <trkpt lat="43.42442" lon="6.04835">
        <ele>336.60000610352</ele>
        <time>2012-12-08T15:26:45Z</time>
      </trkpt>
      <trkpt lat="43.4244" lon="6.0485">
        <ele>338.39999389648</ele>
        <time>2012-12-08T15:26:53Z</time>
      </trkpt>
      <trkpt lat="43.42442" lon="6.04864">
        <ele>340.39999389648</ele>
        <time>2012-12-08T15:27:02Z</time>
      </trkpt>
      <trkpt lat="43.42443" lon="6.04891">
        <ele>340.39999389648</ele>
        <time>2012-12-08T15:27:27Z</time>
      </trkpt>
      <trkpt lat="43.42452" lon="6.04894">
        <ele>340.39999389648</ele>
        <time>2012-12-08T15:27:37Z</time>
      </trkpt>
      <trkpt lat="43.42461" lon="6.04903">
        <ele>338.20001220703</ele>
        <time>2012-12-08T15:27:44Z</time>
      </trkpt>
      <trkpt lat="43.42461" lon="6.04905">
        <ele>337.79998779297</ele>
        <time>2012-12-08T15:27:45Z</time>
      </trkpt>
      <trkpt lat="43.42462" lon="6.04906">
        <ele>337.20001220703</ele>
        <time>2012-12-08T15:27:47Z</time>
      </trkpt>
      <trkpt lat="43.42462" lon="6.04906">
        <ele>335.39999389648</ele>
        <time>2012-12-08T15:28:05Z</time>
      </trkpt>
      <trkpt lat="43.42459" lon="6.04925">
        <ele>335.39999389648</ele>
        <time>2012-12-08T15:28:28Z</time>
      </trkpt>
      <trkpt lat="43.42459" lon="6.04926">
        <ele>337.39999389648</ele>
        <time>2012-12-08T15:28:37Z</time>
      </trkpt>
      <trkpt lat="43.42459" lon="6.04931">
        <ele>337.39999389648</ele>
        <time>2012-12-08T15:28:44Z</time>
      </trkpt>
      <trkpt lat="43.4246" lon="6.04932">
        <ele>337.39999389648</ele>
        <time>2012-12-08T15:28:50Z</time>
      </trkpt>
      <trkpt lat="43.42463" lon="6.04933">
        <ele>337.39999389648</ele>
        <time>2012-12-08T15:28:56Z</time>
      </trkpt>
      <trkpt lat="43.42468" lon="6.0495">
        <ele>335.79998779297</ele>
        <time>2012-12-08T15:29:04Z</time>
      </trkpt>
      <trkpt lat="43.42475" lon="6.04958">
        <ele>335</ele>
        <time>2012-12-08T15:29:08Z</time>
      </trkpt>
      <trkpt lat="43.42477" lon="6.04967">
        <ele>332.79998779297</ele>
        <time>2012-12-08T15:29:13Z</time>
      </trkpt>
      <trkpt lat="43.42487" lon="6.04982">
        <ele>328.79998779297</ele>
        <time>2012-12-08T15:29:20Z</time>
      </trkpt>
      <trkpt lat="43.4249" lon="6.04986">
        <ele>327.79998779297</ele>
        <time>2012-12-08T15:29:24Z</time>
      </trkpt>
      <trkpt lat="43.42497" lon="6.04992">
        <ele>326.20001220703</ele>
        <time>2012-12-08T15:29:29Z</time>
      </trkpt>
      <trkpt lat="43.42508" lon="6.0501">
        <ele>324.39999389648</ele>
        <time>2012-12-08T15:29:36Z</time>
      </trkpt>
      <trkpt lat="43.42511" lon="6.05023">
        <ele>323.60000610352</ele>
        <time>2012-12-08T15:29:40Z</time>
      </trkpt>
      <trkpt lat="43.42507" lon="6.05034">
        <ele>321.39999389648</ele>
        <time>2012-12-08T15:29:45Z</time>
      </trkpt>
      <trkpt lat="43.42517" lon="6.05049">
        <ele>319.79998779297</ele>
        <time>2012-12-08T15:29:52Z</time>
      </trkpt>
      <trkpt lat="43.42518" lon="6.05049">
        <ele>317.79998779297</ele>
        <time>2012-12-08T15:30:47Z</time>
      </trkpt>
      <trkpt lat="43.42519" lon="6.05049">
        <ele>317.79998779297</ele>
        <time>2012-12-08T15:30:54Z</time>
      </trkpt>
      <trkpt lat="43.42519" lon="6.05049">
        <ele>317.79998779297</ele>
        <time>2012-12-08T15:30:56Z</time>
      </trkpt>
      <trkpt lat="43.42561" lon="6.05041">
        <ele>316.20001220703</ele>
        <time>2012-12-08T15:31:10Z</time>
      </trkpt>
      <trkpt lat="43.42574" lon="6.05032">
        <ele>314</ele>
        <time>2012-12-08T15:31:13Z</time>
      </trkpt>
      <trkpt lat="43.42583" lon="6.05021">
        <ele>311.39999389648</ele>
        <time>2012-12-08T15:31:16Z</time>
      </trkpt>
      <trkpt lat="43.42586" lon="6.05014">
        <ele>309.79998779297</ele>
        <time>2012-12-08T15:31:18Z</time>
      </trkpt>
      <trkpt lat="43.42584" lon="6.05005">
        <ele>308.79998779297</ele>
        <time>2012-12-08T15:31:21Z</time>
      </trkpt>
      <trkpt lat="43.4259" lon="6.04983">
        <ele>308.79998779297</ele>
        <time>2012-12-08T15:31:27Z</time>
      </trkpt>
      <trkpt lat="43.42603" lon="6.04928">
        <ele>306.79998779297</ele>
        <time>2012-12-08T15:31:46Z</time>
      </trkpt>
      <trkpt lat="43.42604" lon="6.04923">
        <ele>306.79998779297</ele>
        <time>2012-12-08T15:31:56Z</time>
      </trkpt>
      <trkpt lat="43.42603" lon="6.04917">
        <ele>306.79998779297</ele>
        <time>2012-12-08T15:31:59Z</time>
      </trkpt>
      <trkpt lat="43.42572" lon="6.0487">
        <ele>310</ele>
        <time>2012-12-08T15:32:25Z</time>
      </trkpt>
      <trkpt lat="43.42574" lon="6.04866">
        <ele>310.79998779297</ele>
        <time>2012-12-08T15:32:27Z</time>
      </trkpt>
      <trkpt lat="43.42578" lon="6.04859">
        <ele>311.60000610352</ele>
        <time>2012-12-08T15:32:32Z</time>
      </trkpt>
      <trkpt lat="43.42592" lon="6.04851">
        <ele>314.20001220703</ele>
        <time>2012-12-08T15:32:43Z</time>
      </trkpt>
      <trkpt lat="43.42592" lon="6.04847">
        <ele>314.20001220703</ele>
        <time>2012-12-08T15:32:49Z</time>
      </trkpt>
      <trkpt lat="43.42585" lon="6.04838">
        <ele>314.20001220703</ele>
        <time>2012-12-08T15:32:56Z</time>
      </trkpt>
      <trkpt lat="43.4258" lon="6.04833">
        <ele>316</ele>
        <time>2012-12-08T15:33:00Z</time>
      </trkpt>
      <trkpt lat="43.42575" lon="6.04822">
        <ele>316.39999389648</ele>
        <time>2012-12-08T15:33:07Z</time>
      </trkpt>
      <trkpt lat="43.42572" lon="6.04809">
        <ele>316.39999389648</ele>
        <time>2012-12-08T15:33:13Z</time>
      </trkpt>
      <trkpt lat="43.42572" lon="6.048">
        <ele>318.60000610352</ele>
        <time>2012-12-08T15:33:19Z</time>
      </trkpt>
      <trkpt lat="43.42573" lon="6.04798">
        <ele>318.60000610352</ele>
        <time>2012-12-08T15:33:22Z</time>
      </trkpt>
      <trkpt lat="43.42573" lon="6.04798">
        <ele>318.60000610352</ele>
        <time>2012-12-08T15:33:51Z</time>
      </trkpt>
      <trkpt lat="43.42576" lon="6.04797">
        <ele>318.60000610352</ele>
        <time>2012-12-08T15:33:58Z</time>
      </trkpt>
      <trkpt lat="43.42596" lon="6.04785">
        <ele>320.60000610352</ele>
        <time>2012-12-08T15:34:10Z</time>
      </trkpt>
      <trkpt lat="43.42605" lon="6.04785">
        <ele>320.60000610352</ele>
        <time>2012-12-08T15:34:15Z</time>
      </trkpt>
      <trkpt lat="43.42616" lon="6.04793">
        <ele>320.60000610352</ele>
        <time>2012-12-08T15:34:20Z</time>
      </trkpt>
      <trkpt lat="43.42619" lon="6.04794">
        <ele>320.60000610352</ele>
        <time>2012-12-08T15:34:21Z</time>
      </trkpt>
      <trkpt lat="43.42643" lon="6.04796">
        <ele>320.60000610352</ele>
        <time>2012-12-08T15:34:29Z</time>
      </trkpt>
      <trkpt lat="43.42659" lon="6.04807">
        <ele>319.79998779297</ele>
        <time>2012-12-08T15:34:35Z</time>
      </trkpt>
      <trkpt lat="43.42694" lon="6.04804">
        <ele>316.20001220703</ele>
        <time>2012-12-08T15:34:43Z</time>
      </trkpt>
      <trkpt lat="43.42705" lon="6.04808">
        <ele>314.60000610352</ele>
        <time>2012-12-08T15:34:46Z</time>
      </trkpt>
      <trkpt lat="43.4272" lon="6.04808">
        <ele>312</ele>
        <time>2012-12-08T15:34:50Z</time>
      </trkpt>
      <trkpt lat="43.42734" lon="6.04813">
        <ele>310</ele>
        <time>2012-12-08T15:34:55Z</time>
      </trkpt>
      <trkpt lat="43.42749" lon="6.0481">
        <ele>310</ele>
        <time>2012-12-08T15:35:02Z</time>
      </trkpt>
      <trkpt lat="43.42756" lon="6.04809">
        <ele>310</ele>
        <time>2012-12-08T15:35:05Z</time>
      </trkpt>
      <trkpt lat="43.42776" lon="6.04827">
        <ele>310</ele>
        <time>2012-12-08T15:35:14Z</time>
      </trkpt>
      <trkpt lat="43.42776" lon="6.04856">
        <ele>309.60000610352</ele>
        <time>2012-12-08T15:35:19Z</time>
      </trkpt>
      <trkpt lat="43.42769" lon="6.04881">
        <ele>307.39999389648</ele>
        <time>2012-12-08T15:35:23Z</time>
      </trkpt>
      <trkpt lat="43.42756" lon="6.04911">
        <ele>304.79998779297</ele>
        <time>2012-12-08T15:35:28Z</time>
      </trkpt>
      <trkpt lat="43.42763" lon="6.04944">
        <ele>303.20001220703</ele>
        <time>2012-12-08T15:35:33Z</time>
      </trkpt>
      <trkpt lat="43.42767" lon="6.05017">
        <ele>300.20001220703</ele>
        <time>2012-12-08T15:35:43Z</time>
      </trkpt>
      <trkpt lat="43.42751" lon="6.05069">
        <ele>299</ele>
        <time>2012-12-08T15:35:51Z</time>
      </trkpt>
      <trkpt lat="43.4275" lon="6.05091">
        <ele>298.20001220703</ele>
        <time>2012-12-08T15:35:54Z</time>
      </trkpt>
      <trkpt lat="43.42756" lon="6.0512">
        <ele>295.79998779297</ele>
        <time>2012-12-08T15:35:58Z</time>
      </trkpt>
      <trkpt lat="43.42754" lon="6.05127">
        <ele>295.20001220703</ele>
        <time>2012-12-08T15:35:59Z</time>
      </trkpt>
      <trkpt lat="43.42751" lon="6.05134">
        <ele>294.39999389648</ele>
        <time>2012-12-08T15:36:00Z</time>
      </trkpt>
      <trkpt lat="43.42738" lon="6.05157">
        <ele>293.60000610352</ele>
        <time>2012-12-08T15:36:04Z</time>
      </trkpt>
      <trkpt lat="43.42723" lon="6.05197">
        <ele>291.20001220703</ele>
        <time>2012-12-08T15:36:10Z</time>
      </trkpt>
      <trkpt lat="43.4271" lon="6.05214">
        <ele>289.60000610352</ele>
        <time>2012-12-08T15:36:13Z</time>
      </trkpt>
      <trkpt lat="43.42684" lon="6.05226">
        <ele>287.39999389648</ele>
        <time>2012-12-08T15:36:18Z</time>
      </trkpt>
      <trkpt lat="43.42641" lon="6.0526">
        <ele>282.60000610352</ele>
        <time>2012-12-08T15:36:27Z</time>
      </trkpt>
      <trkpt lat="43.42628" lon="6.05263">
        <ele>282.60000610352</ele>
        <time>2012-12-08T15:36:30Z</time>
      </trkpt>
      <trkpt lat="43.4262" lon="6.05259">
        <ele>282.20001220703</ele>
        <time>2012-12-08T15:36:32Z</time>
      </trkpt>
      <trkpt lat="43.42613" lon="6.05253">
        <ele>281.39999389648</ele>
        <time>2012-12-08T15:36:34Z</time>
      </trkpt>
      <trkpt lat="43.42588" lon="6.05231">
        <ele>278.20001220703</ele>
        <time>2012-12-08T15:36:40Z</time>
      </trkpt>
      <trkpt lat="43.42568" lon="6.0522">
        <ele>278.20001220703</ele>
        <time>2012-12-08T15:36:45Z</time>
      </trkpt>
      <trkpt lat="43.42555" lon="6.0522">
        <ele>278.20001220703</ele>
        <time>2012-12-08T15:36:48Z</time>
      </trkpt>
      <trkpt lat="43.42531" lon="6.05227">
        <ele>277.79998779297</ele>
        <time>2012-12-08T15:36:52Z</time>
      </trkpt>
      <trkpt lat="43.42513" lon="6.05226">
        <ele>276.39999389648</ele>
        <time>2012-12-08T15:36:55Z</time>
      </trkpt>
      <trkpt lat="43.42498" lon="6.05223">
        <ele>276</ele>
        <time>2012-12-08T15:36:58Z</time>
      </trkpt>
      <trkpt lat="43.42486" lon="6.05215">
        <ele>276</ele>
        <time>2012-12-08T15:37:01Z</time>
      </trkpt>
      <trkpt lat="43.42464" lon="6.05212">
        <ele>276</ele>
        <time>2012-12-08T15:37:06Z</time>
      </trkpt>
      <trkpt lat="43.42446" lon="6.05219">
        <ele>276</ele>
        <time>2012-12-08T15:37:09Z</time>
      </trkpt>
      <trkpt lat="43.42439" lon="6.05221">
        <ele>275.60000610352</ele>
        <time>2012-12-08T15:37:10Z</time>
      </trkpt>
      <trkpt lat="43.42415" lon="6.05222">
        <ele>273.39999389648</ele>
        <time>2012-12-08T15:37:14Z</time>
      </trkpt>
      <trkpt lat="43.42408" lon="6.05214">
        <ele>271.60000610352</ele>
        <time>2012-12-08T15:37:17Z</time>
      </trkpt>
      <trkpt lat="43.424" lon="6.05193">
        <ele>272</ele>
        <time>2012-12-08T15:37:26Z</time>
      </trkpt>
      <trkpt lat="43.42395" lon="6.05176">
        <ele>275</ele>
        <time>2012-12-08T15:37:35Z</time>
      </trkpt>
      <trkpt lat="43.42395" lon="6.05175">
        <ele>275.79998779297</ele>
        <time>2012-12-08T15:37:37Z</time>
      </trkpt>
      <trkpt lat="43.42395" lon="6.05174">
        <ele>275.79998779297</ele>
        <time>2012-12-08T15:37:38Z</time>
      </trkpt>
      <trkpt lat="43.42395" lon="6.05174">
        <ele>275.79998779297</ele>
        <time>2012-12-08T15:37:44Z</time>
      </trkpt>
      <trkpt lat="43.42387" lon="6.05182">
        <ele>275.79998779297</ele>
        <time>2012-12-08T15:37:51Z</time>
      </trkpt>
      <trkpt lat="43.42364" lon="6.0519">
        <ele>274.20001220703</ele>
        <time>2012-12-08T15:37:58Z</time>
      </trkpt>
      <trkpt lat="43.42361" lon="6.05193">
        <ele>273.79998779297</ele>
        <time>2012-12-08T15:37:59Z</time>
      </trkpt>
      <trkpt lat="43.4236" lon="6.05197">
        <ele>273.20001220703</ele>
        <time>2012-12-08T15:38:00Z</time>
      </trkpt>
      <trkpt lat="43.42353" lon="6.052">
        <ele>271.60000610352</ele>
        <time>2012-12-08T15:38:03Z</time>
      </trkpt>
      <trkpt lat="43.42337" lon="6.05201">
        <ele>269.20001220703</ele>
        <time>2012-12-08T15:38:08Z</time>
      </trkpt>
      <trkpt lat="43.42328" lon="6.05199">
        <ele>268.39999389648</ele>
        <time>2012-12-08T15:38:10Z</time>
      </trkpt>
      <trkpt lat="43.42318" lon="6.05205">
        <ele>267.60000610352</ele>
        <time>2012-12-08T15:38:12Z</time>
      </trkpt>
      <trkpt lat="43.42307" lon="6.05204">
        <ele>267</ele>
        <time>2012-12-08T15:38:14Z</time>
      </trkpt>
      <trkpt lat="43.42292" lon="6.05192">
        <ele>265.20001220703</ele>
        <time>2012-12-08T15:38:18Z</time>
      </trkpt>
      <trkpt lat="43.42287" lon="6.05192">
        <ele>265.20001220703</ele>
        <time>2012-12-08T15:38:19Z</time>
      </trkpt>
      <trkpt lat="43.42279" lon="6.05199">
        <ele>265.20001220703</ele>
        <time>2012-12-08T15:38:22Z</time>
      </trkpt>
      <trkpt lat="43.42267" lon="6.05208">
        <ele>264.79998779297</ele>
        <time>2012-12-08T15:38:25Z</time>
      </trkpt>
      <trkpt lat="43.42247" lon="6.05209">
        <ele>263.20001220703</ele>
        <time>2012-12-08T15:38:29Z</time>
      </trkpt>
      <trkpt lat="43.42226" lon="6.0519">
        <ele>260.79998779297</ele>
        <time>2012-12-08T15:38:35Z</time>
      </trkpt>
      <trkpt lat="43.42197" lon="6.05168">
        <ele>259</ele>
        <time>2012-12-08T15:38:46Z</time>
      </trkpt>
      <trkpt lat="43.4219" lon="6.05166">
        <ele>258.60000610352</ele>
        <time>2012-12-08T15:38:49Z</time>
      </trkpt>
      <trkpt lat="43.42182" lon="6.05166">
        <ele>257.60000610352</ele>
        <time>2012-12-08T15:38:51Z</time>
      </trkpt>
      <trkpt lat="43.42157" lon="6.05151">
        <ele>256.39999389648</ele>
        <time>2012-12-08T15:38:57Z</time>
      </trkpt>
      <trkpt lat="43.42125" lon="6.05114">
        <ele>254.39999389648</ele>
        <time>2012-12-08T15:39:08Z</time>
      </trkpt>
      <trkpt lat="43.42125" lon="6.05114">
        <ele>254.39999389648</ele>
        <time>2012-12-08T15:39:28Z</time>
      </trkpt>
      <trkpt lat="43.42125" lon="6.05114">
        <ele>254.39999389648</ele>
        <time>2012-12-08T15:49:10Z</time>
      </trkpt>
      <trkpt lat="43.42077" lon="6.05111">
        <ele>252.80000305176</ele>
        <time>2012-12-08T15:52:00Z</time>
      </trkpt>
      <trkpt lat="43.42034" lon="6.05119">
        <ele>250.80000305176</ele>
        <time>2012-12-08T15:52:08Z</time>
      </trkpt>
      <trkpt lat="43.41978" lon="6.05132">
        <ele>249.80000305176</ele>
        <time>2012-12-08T15:52:18Z</time>
      </trkpt>
      <trkpt lat="43.41916" lon="6.05162">
        <ele>246.19999694824</ele>
        <time>2012-12-08T15:52:28Z</time>
      </trkpt>
      <trkpt lat="43.4189" lon="6.05173">
        <ele>244.39999389648</ele>
        <time>2012-12-08T15:52:32Z</time>
      </trkpt>
      <trkpt lat="43.4184" lon="6.05185">
        <ele>242.19999694824</ele>
        <time>2012-12-08T15:52:38Z</time>
      </trkpt>
      <trkpt lat="43.41807" lon="6.05184">
        <ele>240.60000610352</ele>
        <time>2012-12-08T15:52:42Z</time>
      </trkpt>
      <trkpt lat="43.41745" lon="6.05175">
        <ele>236.19999694824</ele>
        <time>2012-12-08T15:52:50Z</time>
      </trkpt>
      <trkpt lat="43.41739" lon="6.0517">
        <ele>235.60000610352</ele>
        <time>2012-12-08T15:52:51Z</time>
      </trkpt>
      <trkpt lat="43.41736" lon="6.05162">
        <ele>235</ele>
        <time>2012-12-08T15:52:52Z</time>
      </trkpt>
      <trkpt lat="43.41736" lon="6.05121">
        <ele>234.39999389648</ele>
        <time>2012-12-08T15:52:57Z</time>
      </trkpt>
      <trkpt lat="43.41734" lon="6.05108">
        <ele>234.39999389648</ele>
        <time>2012-12-08T15:52:59Z</time>
      </trkpt>
      <trkpt lat="43.41729" lon="6.05105">
        <ele>234.39999389648</ele>
        <time>2012-12-08T15:53:00Z</time>
      </trkpt>
      <trkpt lat="43.41699" lon="6.05125">
        <ele>232.19999694824</ele>
        <time>2012-12-08T15:53:05Z</time>
      </trkpt>
      <trkpt lat="43.41671" lon="6.05158">
        <ele>230</ele>
        <time>2012-12-08T15:53:10Z</time>
      </trkpt>
      <trkpt lat="43.41656" lon="6.05167">
        <ele>229.19999694824</ele>
        <time>2012-12-08T15:53:12Z</time>
      </trkpt>
      <trkpt lat="43.41581" lon="6.05158">
        <ele>222.80000305176</ele>
        <time>2012-12-08T15:53:21Z</time>
      </trkpt>
      <trkpt lat="43.41546" lon="6.05152">
        <ele>222</ele>
        <time>2012-12-08T15:53:25Z</time>
      </trkpt>
      <trkpt lat="43.4152" lon="6.05155">
        <ele>220.39999389648</ele>
        <time>2012-12-08T15:53:28Z</time>
      </trkpt>
      <trkpt lat="43.41499" lon="6.05161">
        <ele>218.60000610352</ele>
        <time>2012-12-08T15:53:31Z</time>
      </trkpt>
      <trkpt lat="43.41496" lon="6.05164">
        <ele>218.60000610352</ele>
        <time>2012-12-08T15:53:32Z</time>
      </trkpt>
      <trkpt lat="43.41493" lon="6.05178">
        <ele>218.60000610352</ele>
        <time>2012-12-08T15:53:35Z</time>
      </trkpt>
      <trkpt lat="43.41501" lon="6.05195">
        <ele>218.60000610352</ele>
        <time>2012-12-08T15:53:38Z</time>
      </trkpt>
      <trkpt lat="43.41534" lon="6.05262">
        <ele>218.60000610352</ele>
        <time>2012-12-08T15:53:49Z</time>
      </trkpt>
      <trkpt lat="43.41552" lon="6.05326">
        <ele>218.60000610352</ele>
        <time>2012-12-08T15:53:58Z</time>
      </trkpt>
      <trkpt lat="43.41584" lon="6.05413">
        <ele>220.60000610352</ele>
        <time>2012-12-08T15:54:11Z</time>
      </trkpt>
      <trkpt lat="43.41617" lon="6.05526">
        <ele>220.60000610352</ele>
        <time>2012-12-08T15:54:27Z</time>
      </trkpt>
      <trkpt lat="43.41631" lon="6.05586">
        <ele>220.60000610352</ele>
        <time>2012-12-08T15:54:35Z</time>
      </trkpt>
      <trkpt lat="43.4164" lon="6.05656">
        <ele>221.60000610352</ele>
        <time>2012-12-08T15:54:44Z</time>
      </trkpt>
      <trkpt lat="43.41645" lon="6.05756">
        <ele>222.80000305176</ele>
        <time>2012-12-08T15:54:57Z</time>
      </trkpt>
      <trkpt lat="43.41639" lon="6.05882">
        <ele>222.80000305176</ele>
        <time>2012-12-08T15:55:12Z</time>
      </trkpt>
      <trkpt lat="43.41633" lon="6.05939">
        <ele>222.80000305176</ele>
        <time>2012-12-08T15:55:18Z</time>
      </trkpt>
      <trkpt lat="43.4163" lon="6.05958">
        <ele>222.80000305176</ele>
        <time>2012-12-08T15:55:20Z</time>
      </trkpt>
      <trkpt lat="43.41617" lon="6.06032">
        <ele>222.39999389648</ele>
        <time>2012-12-08T15:55:27Z</time>
      </trkpt>
      <trkpt lat="43.41614" lon="6.06079">
        <ele>220.60000610352</ele>
        <time>2012-12-08T15:55:31Z</time>
      </trkpt>
      <trkpt lat="43.41615" lon="6.06091">
        <ele>220.60000610352</ele>
        <time>2012-12-08T15:55:32Z</time>
      </trkpt>
      <trkpt lat="43.41629" lon="6.06128">
        <ele>220.60000610352</ele>
        <time>2012-12-08T15:55:36Z</time>
      </trkpt>
      <trkpt lat="43.41629" lon="6.06134">
        <ele>220.60000610352</ele>
        <time>2012-12-08T15:55:37Z</time>
      </trkpt>
      <trkpt lat="43.41604" lon="6.0617">
        <ele>218.39999389648</ele>
        <time>2012-12-08T15:55:44Z</time>
      </trkpt>
      <trkpt lat="43.41597" lon="6.06202">
        <ele>218.39999389648</ele>
        <time>2012-12-08T15:55:51Z</time>
      </trkpt>
      <trkpt lat="43.41591" lon="6.06203">
        <ele>218.39999389648</ele>
        <time>2012-12-08T15:55:55Z</time>
      </trkpt>
      <trkpt lat="43.41579" lon="6.06182">
        <ele>218.39999389648</ele>
        <time>2012-12-08T15:56:11Z</time>
      </trkpt>
      <trkpt lat="43.41566" lon="6.06175">
        <ele>218.39999389648</ele>
        <time>2012-12-08T15:56:15Z</time>
      </trkpt>
      <trkpt lat="43.41557" lon="6.06174">
        <ele>218.39999389648</ele>
        <time>2012-12-08T15:56:17Z</time>
      </trkpt>
      <trkpt lat="43.4154" lon="6.06183">
        <ele>218.39999389648</ele>
        <time>2012-12-08T15:56:20Z</time>
      </trkpt>
      <trkpt lat="43.41499" lon="6.06186">
        <ele>217.60000610352</ele>
        <time>2012-12-08T15:56:26Z</time>
      </trkpt>
      <trkpt lat="43.41484" lon="6.06184">
        <ele>216.80000305176</ele>
        <time>2012-12-08T15:56:28Z</time>
      </trkpt>
      <trkpt lat="43.41457" lon="6.06177">
        <ele>216.19999694824</ele>
        <time>2012-12-08T15:56:32Z</time>
      </trkpt>
      <trkpt lat="43.41416" lon="6.06163">
        <ele>216.19999694824</ele>
        <time>2012-12-08T15:56:38Z</time>
      </trkpt>
      <trkpt lat="43.41396" lon="6.06149">
        <ele>214.19999694824</ele>
        <time>2012-12-08T15:56:41Z</time>
      </trkpt>
      <trkpt lat="43.41319" lon="6.06069">
        <ele>209.60000610352</ele>
        <time>2012-12-08T15:56:53Z</time>
      </trkpt>
      <trkpt lat="43.41305" lon="6.0606">
        <ele>209.60000610352</ele>
        <time>2012-12-08T15:56:55Z</time>
      </trkpt>
      <trkpt lat="43.41297" lon="6.06061">
        <ele>209.60000610352</ele>
        <time>2012-12-08T15:56:56Z</time>
      </trkpt>
      <trkpt lat="43.41276" lon="6.06072">
        <ele>209.60000610352</ele>
        <time>2012-12-08T15:56:59Z</time>
      </trkpt>
      <trkpt lat="43.41195" lon="6.0612">
        <ele>205.80000305176</ele>
        <time>2012-12-08T15:57:12Z</time>
      </trkpt>
      <trkpt lat="43.41193" lon="6.06139">
        <ele>205.39999389648</ele>
        <time>2012-12-08T15:57:16Z</time>
      </trkpt>
      <trkpt lat="43.41196" lon="6.06167">
        <ele>205.39999389648</ele>
        <time>2012-12-08T15:57:20Z</time>
      </trkpt>
      <trkpt lat="43.41198" lon="6.06187">
        <ele>205.39999389648</ele>
        <time>2012-12-08T15:57:23Z</time>
      </trkpt>
      <trkpt lat="43.41197" lon="6.06198">
        <ele>205.39999389648</ele>
        <time>2012-12-08T15:57:25Z</time>
      </trkpt>
      <trkpt lat="43.41192" lon="6.06205">
        <ele>205.39999389648</ele>
        <time>2012-12-08T15:57:27Z</time>
      </trkpt>
      <trkpt lat="43.41163" lon="6.06208">
        <ele>205.39999389648</ele>
        <time>2012-12-08T15:57:33Z</time>
      </trkpt>
      <trkpt lat="43.41141" lon="6.06216">
        <ele>205.39999389648</ele>
        <time>2012-12-08T15:57:37Z</time>
      </trkpt>
      <trkpt lat="43.41112" lon="6.06235">
        <ele>205.39999389648</ele>
        <time>2012-12-08T15:57:42Z</time>
      </trkpt>
      <trkpt lat="43.41046" lon="6.06255">
        <ele>203.39999389648</ele>
        <time>2012-12-08T15:57:52Z</time>
      </trkpt>
      <trkpt lat="43.40985" lon="6.06268">
        <ele>203.39999389648</ele>
        <time>2012-12-08T15:58:04Z</time>
      </trkpt>
      <trkpt lat="43.40952" lon="6.06283">
        <ele>203.39999389648</ele>
        <time>2012-12-08T15:58:52Z</time>
      </trkpt>
      <trkpt lat="43.40871" lon="6.06384">
        <ele>203.39999389648</ele>
        <time>2012-12-08T15:59:06Z</time>
      </trkpt>
      <trkpt lat="43.40858" lon="6.06398">
        <ele>203</ele>
        <time>2012-12-08T15:59:08Z</time>
      </trkpt>
      <trkpt lat="43.40836" lon="6.06413">
        <ele>201.19999694824</ele>
        <time>2012-12-08T15:59:11Z</time>
      </trkpt>
      <trkpt lat="43.40829" lon="6.06416">
        <ele>200.80000305176</ele>
        <time>2012-12-08T15:59:12Z</time>
      </trkpt>
      <trkpt lat="43.40788" lon="6.06409">
        <ele>200.80000305176</ele>
        <time>2012-12-08T15:59:18Z</time>
      </trkpt>
      <trkpt lat="43.40766" lon="6.06414">
        <ele>200.80000305176</ele>
        <time>2012-12-08T15:59:22Z</time>
      </trkpt>
      <trkpt lat="43.40714" lon="6.06426">
        <ele>202.80000305176</ele>
        <time>2012-12-08T15:59:39Z</time>
      </trkpt>
      <trkpt lat="43.40697" lon="6.06431">
        <ele>202.80000305176</ele>
        <time>2012-12-08T15:59:43Z</time>
      </trkpt>
      <trkpt lat="43.40682" lon="6.0644">
        <ele>203.19999694824</ele>
        <time>2012-12-08T15:59:47Z</time>
      </trkpt>
      <trkpt lat="43.40669" lon="6.06453">
        <ele>205</ele>
        <time>2012-12-08T15:59:51Z</time>
      </trkpt>
      <trkpt lat="43.40626" lon="6.06497">
        <ele>209.39999389648</ele>
        <time>2012-12-08T16:00:08Z</time>
      </trkpt>
      <trkpt lat="43.40611" lon="6.06503">
        <ele>209.39999389648</ele>
        <time>2012-12-08T16:00:14Z</time>
      </trkpt>
      <trkpt lat="43.40568" lon="6.06496">
        <ele>212.19999694824</ele>
        <time>2012-12-08T16:00:31Z</time>
      </trkpt>
      <trkpt lat="43.40553" lon="6.06492">
        <ele>214</ele>
        <time>2012-12-08T16:00:37Z</time>
      </trkpt>
      <trkpt lat="43.40545" lon="6.06494">
        <ele>214.39999389648</ele>
        <time>2012-12-08T16:00:41Z</time>
      </trkpt>
      <trkpt lat="43.4053" lon="6.06509">
        <ele>214.39999389648</ele>
        <time>2012-12-08T16:00:52Z</time>
      </trkpt>
      <trkpt lat="43.40525" lon="6.0651">
        <ele>214.39999389648</ele>
        <time>2012-12-08T16:00:56Z</time>
      </trkpt>
      <trkpt lat="43.40522" lon="6.06524">
        <ele>215</ele>
        <time>2012-12-08T16:01:49Z</time>
      </trkpt>
    </trkseg>
  </trk>
</gpx>